ScrubGaming123 Games - Total: 3352
1 2 3 4
Rank Song Name Score PGAMB Combo Time
6,313 Dokudenpa 934,550 1,313 - 228 - 18 - 41 - 79 163 2020-02-25 23:51:52
67 Tool-Assisted Speedcore (TQBF Frame Advance RMX) 342,465 356 - 141 - 16 - 33 - 38 118 2020-02-25 23:48:00
1,903 Hyperactivity 627,795 566 - 31 - 0 - 3 - 5 309 2020-02-25 23:46:10
51 Edible Flower Monologue 558,645 770 - 317 - 26 - 128 - 139 89 2020-02-25 23:34:29
13,973 Infernoplex 140,970 132 - 31 - 5 - 17 - 8 65 2020-02-14 05:59:47
2,239 Fast Rap Battle 713,990 552 - 111 - 5 - 9 - 31 383 2020-02-14 05:59:06
1,878 Spider Dance 125,840 122 - 22 - 0 - 23 - 9 60 2020-02-14 05:57:00
13,721 Hyper Pressure 252,845 233 - 31 - 0 - 25 - 4 124 2020-02-14 05:56:22
5,003 Down With the Sickness 298,150 209 - 21 - 1 - 21 - 6 184 2020-02-06 04:55:34
5,070 Song of Storms Dubstep Rap Remix 306,845 194 - 11 - 0 - 22 - 3 204 2020-02-06 04:54:13
17,200 ReRicked 77,085 67 - 11 - 2 - 22 - 4 44 2020-02-06 04:53:12
54,130 Mario Eurobeat 118,930 72 - 11 - 1 - 25 - 0 84 2020-02-06 04:52:46
26,091 Honolulu 179,505 106 - 22 - 1 - 22 - 4 122 2020-02-06 04:52:19
4,698 Canon In WHEE [FC] 529,425 321 - 25 - 0 - 0 - 0 346 2020-02-06 04:51:32
3,684 Arrrrrr 272,790 248 - 16 - 0 - 3 - 4 133 2020-02-06 04:49:38
2,077 CAPTAIN JACK (GRANDALE REMIX) 163,900 219 - 29 - 5 - 40 - 20 48 2020-02-06 04:48:02
7,145 Maintenance Bot 63,075 52 - 12 - 1 - 22 - 3 38 2020-02-06 04:47:07
11,621 I Am Robot 181,855 109 - 15 - 0 - 20 - 1 124 2020-02-06 04:46:23
1,263 CmR 480,710 410 - 26 - 2 - 3 - 6 249 2020-02-06 04:45:36
9,355 Tron From Hell 265,145 189 - 24 - 3 - 21 - 3 161 2020-02-06 04:42:22
3,600 Pembroke Welsh Corgi 355,505 289 - 29 - 4 - 46 - 19 203 2020-02-06 04:41:08
42,660 Arabesque 159,215 112 - 11 - 2 - 24 - 4 102 2020-02-06 04:39:24
3,726 bluebird 121,385 83 - 23 - 0 - 21 - 4 76 2020-02-06 04:38:40
4,685 XP Sounds Attempt 248,375 231 - 85 - 4 - 31 - 33 108 2020-02-06 04:37:41
18,995 B.B. - Euro - 194,175 117 - 23 - 0 - 24 - 3 131 2020-02-06 04:36:33
11,896 Toph's OP 223,115 126 - 25 - 4 - 20 - 4 153 2020-02-06 04:35:21
7,113 Ska Cha Cha 108,050 120 - 24 - 0 - 27 - 9 44 2020-02-06 04:34:30
7,935 Reversing Darts 217,650 129 - 19 - 3 - 21 - 9 148 2020-02-06 04:33:53
14,514 Infernoplex 90,500 66 - 55 - 11 - 29 - 77 49 2020-02-06 04:32:11
4,594 Champion Freeverse 140,955 121 - 13 - 0 - 23 - 2 78 2020-02-06 04:31:02
3,964 Fast Rap Battle 104,455 68 - 44 - 3 - 35 - 18 66 2020-02-06 04:30:07
3,621 Princess Lolitits 147,060 125 - 48 - 4 - 47 - 27 80 2020-02-06 04:29:21
24,683 Etude To A Dragon 167,830 183 - 58 - 4 - 37 - 26 63 2020-02-06 04:28:01
2,825 Megalovania 78,520 66 - 28 - 0 - 30 - 9 44 2020-02-06 04:27:04
4,162 Dating Start! 109,470 121 - 29 - 3 - 26 - 8 43 2020-02-06 04:26:29
1,914 Metal Crusher 146,170 83 - 22 - 0 - 21 - 1 101 2020-02-06 04:25:46
1,985 Spider Dance 76,090 69 - 28 - 0 - 24 - 6 38 2020-02-06 04:25:12
2,871 Silent Wind 107,545 92 - 43 - 0 - 28 - 10 54 2020-02-06 04:24:41
1,846 Princess Lolitits 504,500 412 - 82 - 10 - 14 - 43 260 2020-02-03 00:05:51
1,075 Silent Wind 674,915 584 - 67 - 4 - 5 - 19 337 2020-02-02 23:48:55
734 Etude for the Sinners 712,990 898 - 501 - 131 - 235 - 252 152 2020-02-02 23:43:04
1,272 Keep It Short 1,075,780 682 - 106 - 18 - 2 - 42 672 2020-02-02 23:38:41
5,908 Teh Tricky Techno 304,340 350 - 89 - 9 - 25 - 19 95 2020-02-02 23:35:18
8,837 Fantranstic 551,240 756 - 109 - 3 - 36 - 27 117 2020-02-02 23:33:17
5,215 Dragons Bane 724,160 622 - 118 - 10 - 12 - 11 353 2020-02-02 23:26:57
12,055 Hyper Pressure 420,645 449 - 83 - 4 - 13 - 16 155 2020-02-02 23:22:47
5,414 Killer Dance Floor [FC] 798,965 490 - 31 - 0 - 0 - 3 521 2020-02-02 23:07:38
1,847 Bit Blue 425,560 487 - 148 - 14 - 70 - 53 139 2020-02-02 23:03:02
1,817 Falcon Punch 329,660 303 - 96 - 4 - 17 - 17 142 2020-02-02 23:00:30
1,012 Aishiteru Yo Ne 1,028,180 1,338 - 220 - 38 - 47 - 87 246 2020-02-02 22:45:53
6,400 Lovely Lovely Lovely 491,605 648 - 116 - 9 - 53 - 38 120 2020-02-02 22:41:11
18,299 Lovely Lovely Lovely 130,180 108 - 35 - 7 - 7 - 3 63 2020-02-02 22:37:48
989 FrainBreeze 62,100 32 - 13 - 3 - 20 - 2 47 2020-01-14 05:20:39
23,043 Air Breeze 52,820 32 - 10 - 0 - 21 - 1 39 2020-01-14 05:20:07
2,502 warm sea 86,110 52 - 10 - 0 - 20 - 2 61 2020-01-14 05:19:45
1,601 Silent Wind 745,705 496 - 124 - 29 - 11 - 19 441 2020-01-14 05:19:11
7,845 Ska Cha Cha 78,305 47 - 11 - 0 - 21 - 3 56 2020-01-14 05:17:13
6,387 Secrets and Lies 719,260 663 - 116 - 16 - 15 - 26 327 2020-01-14 05:14:51
2,342 Champion Freeverse 545,265 690 - 110 - 21 - 20 - 22 141 2020-01-14 05:12:19
57,217 The Games We Played [Part 1] 135,440 101 - 35 - 3 - 6 - 2 72 2020-01-14 05:09:51
1,185 Alive (Pegboard Nerds Remix) [Heavy] 668,475 850 - 282 - 45 - 91 - 42 150 2020-01-14 05:09:00
797 Spear of Justice 479,675 679 - 224 - 61 - 177 - 93 98 2020-01-14 05:05:39
1,266 Spear of Justice 221,910 258 - 64 - 10 - 44 - 25 76 2020-01-14 05:03:32
1,228 Spider Dance 470,325 654 - 181 - 20 - 97 - 59 91 2020-01-14 05:01:46
35,812 Etude To A Dragon 52,115 37 - 1 - 0 - 21 - 0 38 2020-01-14 04:59:24
14,600 Infernoplex 111,975 72 - 7 - 0 - 5 - 0 72 2020-01-14 04:58:55
4,782 Champion Freeverse 96,825 71 - 30 - 1 - 21 - 1 56 2020-01-14 04:58:26
15,221 Toph's OP 3,115 4 - 1 - 0 - 14 - 1 5 2020-01-14 04:57:29
53,466 X-Dreamer Final Cut 88,810 57 - 5 - 1 - 19 - 4 62 2020-01-14 04:56:57
1,531 Spear of Justice 84,985 77 - 9 - 0 - 22 - 1 47 2020-01-14 04:56:05
15,706 Hyper Pressure 43,640 60 - 6 - 0 - 29 - 1 18 2020-01-14 04:55:34
2,065 Champion Freeverse 688,385 719 - 105 - 2 - 15 - 20 269 2020-01-12 23:09:13
5,047 Toph's OP 504,165 630 - 93 - 8 - 19 - 23 138 2020-01-12 23:00:32
1,505 Silent Wind 480,715 518 - 117 - 2 - 23 - 17 171 2020-01-12 22:57:43
17,627 Horizon Remix 183,985 139 - 18 - 3 - 8 - 5 105 2020-01-12 22:51:57
12,347 Hyper Pressure 510,010 383 - 59 - 1 - 6 - 3 285 2020-01-12 22:45:22
8,024 Etude To A Dragon 613,235 663 - 77 - 8 - 21 - 26 234 2020-01-12 15:14:25
4,888 Yoshi's Cookie 217,915 193 - 37 - 2 - 14 - 9 106 2020-01-12 15:12:06
2,821 XP Sounds Attempt 797,670 666 - 113 - 5 - 18 - 20 406 2020-01-12 15:11:25
4,610 Mortal Kombat Menu Metal 85,220 83 - 19 - 1 - 5 - 8 36 2020-01-12 15:09:17
800 Metal Crusher 487,585 465 - 63 - 6 - 8 - 17 217 2020-01-12 15:08:36
14,331 Air Breeze 219,250 191 - 64 - 2 - 17 - 12 102 2020-01-12 15:07:14
146 Fastest Pointer-Finger in the West [FC] 19,600 11 - 2 - 0 - 0 - 0 13 2020-01-12 15:06:28
174 Fastest Pointer-Finger in the West [FC] 18,830 9 - 3 - 1 - 0 - 0 13 2020-01-12 15:06:20
156 Fastest Pointer-Finger in the West [FC] 19,380 11 - 1 - 1 - 0 - 0 13 2020-01-12 15:06:07
13,177 Hyper Pressure 406,030 273 - 44 - 0 - 10 - 6 247 2020-01-11 19:34:13
1,695 16bitFruit 432,880 557 - 121 - 7 - 47 - 28 108 2020-01-11 17:43:44
5,425 The Games We Played [Part 4] 815,165 971 - 120 - 9 - 24 - 47 256 2020-01-11 17:38:55
505 FrainBreeze 600,995 779 - 181 - 12 - 51 - 54 139 2020-01-11 17:34:52
8,219 Dazzling Soul 601,290 784 - 158 - 18 - 41 - 82 140 2020-01-11 17:21:36
1,134 s.s.s.s. 394,705 395 - 80 - 15 - 15 - 36 160 2020-01-11 17:17:23
4,178 Reversing Darts 717,060 948 - 207 - 13 - 64 - 57 159 2020-01-11 17:13:08
5,443 Toph's OP 492,090 599 - 127 - 7 - 17 - 20 133 2020-01-11 17:08:54
3,856 X-Dreamer Final Cut 668,280 574 - 30 - 2 - 2 - 8 345 2020-01-11 17:00:48
1,218 Spear of Justice 257,315 275 - 66 - 11 - 27 - 16 96 2020-01-11 16:58:29
19,234 Exciting Hyper Highspeed Star 93,565 87 - 17 - 0 - 6 - 5 43 2020-01-11 16:55:57
6,982 Brainwave 177,195 167 - 57 - 6 - 14 - 16 74 2020-01-11 16:54:09
3,399 Fly With Me 860,805 714 - 55 - 2 - 3 - 10 454 2020-01-11 16:52:40
6,291 Hyper Pressure 950,725 949 - 139 - 4 - 19 - 39 397 2020-01-11 16:46:18
1,104 Indignant Divinity 417,150 392 - 148 - 18 - 62 - 46 180 2020-01-11 16:42:36
2,035 Tricky Concert [FC] 440,825 277 - 9 - 0 - 0 - 0 286 2020-01-11 16:36:11
13,279 Cutting Circles 99,475 93 - 14 - 3 - 5 - 7 46 2020-01-11 16:34:43
12,023 Cutting Circles 183,705 185 - 32 - 5 - 6 - 13 75 2020-01-11 16:29:56
7,402 B.B. - Euro - 755,630 981 - 222 - 12 - 49 - 72 171 2020-01-11 16:20:11
4,163 Song of Storms Dubstep Rap Remix 314,385 314 - 157 - 64 - 27 - 32 104 2020-01-11 16:16:04
30,475 Lesson 188,700 194 - 60 - 10 - 9 - 13 68 2020-01-11 16:13:31
4,235 Dating Start! 81,130 90 - 50 - 14 - 21 - 19 24 2020-01-11 16:12:12
1,148 Spear of Justice 262,900 305 - 67 - 7 - 30 - 18 86 2020-01-11 15:50:34
7,896 Infernoplex 959,310 1,158 - 239 - 9 - 49 - 31 272 2020-01-11 15:41:34
6,289 Turbulence 384,625 541 - 152 - 1 - 62 - 28 65 2020-01-11 13:45:46
1,612 THE LITTLE MERMAID 58,535 44 - 14 - 1 - 5 - 1 32 2020-01-11 13:43:44
2,179 Mario Mix for Piano 639,900 784 - 121 - 7 - 36 - 40 187 2020-01-11 13:39:32
3,845 Melted Marble 415,625 534 - 182 - 9 - 60 - 51 91 2020-01-11 13:36:49
5,616 Wisdom 463,310 573 - 155 - 5 - 36 - 29 117 2020-01-11 13:35:07
2,253 Luna Ascension 331,355 334 - 75 - 6 - 22 - 24 134 2020-01-11 13:32:27
1,986 Interlude 529,795 694 - 214 - 13 - 95 - 51 119 2020-01-11 13:30:27
3,282 Far Away From Home 501,260 727 - 165 - 15 - 57 - 56 74 2020-01-11 13:27:56
1,309 Yukidokeiro Flowers 231,720 174 - 29 - 1 - 3 - 4 129 2020-01-11 13:22:13
1,445 Yukidokeiro Flowers 35,860 20 - 3 - 1 - 0 - 1 24 2020-01-11 13:19:29
12,106 5 Black Skulls 594,465 496 - 54 - 5 - 10 - 18 310 2020-01-11 13:18:20
4,804 What's What 768,550 540 - 65 - 3 - 7 - 16 456 2020-01-11 13:15:02
16,261 What's What 568,430 381 - 36 - 2 - 3 - 10 350 2020-01-11 13:11:46
5,198 What's What 687,945 525 - 82 - 1 - 7 - 12 379 2020-01-11 13:07:48
425 pause 115,255 79 - 4 - 1 - 1 - 2 71 2020-01-11 13:03:08
374 Passengers [Beginner] [FC] 62,725 38 - 3 - 0 - 0 - 0 41 2020-01-11 13:00:47
2,195 Champion Freeverse 676,390 711 - 104 - 4 - 22 - 33 264 2020-01-02 01:08:40
9,756 Hatten Carnival! 470,195 534 - 86 - 1 - 19 - 16 159 2020-01-02 01:03:48
8,655 Infernoplex 828,325 1,115 - 251 - 8 - 81 - 64 172 2019-12-18 18:24:12
3,752 XP Sounds Attempt 492,795 526 - 193 - 10 - 73 - 75 174 2019-12-18 18:16:19
6,216 Theme of the Dragoon Knights 229,035 159 - 29 - 0 - 1 - 4 134 2019-12-18 18:14:05
8,581 ReRicked 279,565 252 - 119 - 2 - 27 - 25 117 2019-12-18 18:12:58
12,390 Honolulu 256,030 237 - 42 - 0 - 9 - 4 117 2019-12-18 18:10:11
1,332 Gruntilda's Final Battle 173,560 156 - 66 - 6 - 30 - 21 79 2019-12-18 18:04:00
11,603 Toph's OP 149,170 126 - 46 - 0 - 18 - 10 73 2019-12-18 18:03:10
1,784 Jumper 465,805 537 - 63 - 6 - 6 - 17 155 2019-11-24 17:12:35
4,026 Jumper 408,085 327 - 35 - 0 - 13 - 18 223 2019-11-24 17:03:53
1,212 Exogenesis 574,550 755 - 139 - 15 - 33 - 76 132 2019-11-24 17:01:14
6,589 Seven 492,255 604 - 137 - 4 - 32 - 46 133 2019-11-24 16:57:33
1,175 Call Upon the Seaponies (EuroSHOOBEDOO Mix) 510,725 701 - 224 - 31 - 59 - 142 83 2019-11-24 16:55:02
164 Forgotten Story 512,600 604 - 95 - 3 - 21 - 19 161 2019-11-24 16:50:57
1,624 W 1,006,635 756 - 84 - 3 - 7 - 13 570 2019-11-24 16:47:25
7,755 X-Dreamer Final Cut 668,465 529 - 71 - 2 - 6 - 13 360 2019-11-24 16:36:13
32,701 X-Dreamer Final Cut 224,950 251 - 38 - 2 - 8 - 9 79 2019-11-24 16:28:34
14,936 Infernoplex 59,010 58 - 4 - 0 - 3 - 3 27 2019-11-21 17:57:51
10,077 Toph's OP 379,230 324 - 58 - 4 - 6 - 14 187 2019-11-21 17:57:19
1,230 Spear of Justice 250,375 239 - 47 - 6 - 13 - 15 110 2019-11-21 17:56:13
1,311 Gruntilda's Final Battle 239,590 184 - 23 - 1 - 3 - 3 133 2019-11-21 17:51:14
1,347 Gruntilda's Final Battle 225,325 144 - 11 - 2 - 3 - 4 144 2019-11-21 17:42:28
973 Gruntilda's Final Battle 633,675 906 - 375 - 52 - 141 - 245 78 2019-11-21 01:15:24
9,128 Infernoplex 811,695 1,044 - 325 - 12 - 74 - 80 172 2019-11-21 01:12:02
10,052 Infernoplex 758,755 973 - 345 - 24 - 113 - 128 165 2019-11-21 01:07:36
1,262 Gruntilda's Final Battle 270,960 228 - 74 - 12 - 27 - 54 134 2019-11-21 01:03:27
1,459 Gruntilda's Final Battle 3,620 4 - 5 - 1 - 9 - 11 3 2019-11-21 01:02:31
1,451 Gruntilda's Final Battle 6,960 8 - 7 - 1 - 10 - 16 4 2019-11-21 01:02:23
1,455 Gruntilda's Final Battle 4,445 7 - 1 - 0 - 8 - 10 3 2019-11-21 01:02:14
3,959 Champion Freeverse 328,260 295 - 155 - 3 - 36 - 31 135 2019-11-21 01:01:08
10,915 Toph's OP 221,640 172 - 36 - 2 - 9 - 9 120 2019-11-21 00:58:27
13,989 Toph's OP 21,910 9 - 12 - 0 - 14 - 0 18 2019-11-21 00:57:43
26,263 Kirby's Dream Land 352,350 313 - 83 - 1 - 24 - 12 165 2019-11-21 00:57:22
10,580 Toph's OP 199,895 232 - 38 - 3 - 10 - 11 65 2019-11-17 15:19:45
3,966 Utopia [Smiley] 630,420 686 - 92 - 10 - 7 - 28 230 2019-11-17 15:10:16
6,000 DT Rabbit Blood Festival 735,810 932 - 131 - 5 - 17 - 41 193 2019-11-17 15:05:15
2,257 Disc Jockey MIKE 171,145 145 - 17 - 0 - 4 - 2 88 2019-11-17 15:01:22
25,961 Kirby's Dream Land 365,035 344 - 59 - 4 - 17 - 17 165 2019-11-17 14:59:50
4,334 Bury Me on the Jedi Battlefield 708,610 682 - 73 - 3 - 5 - 9 315 2019-11-17 14:58:30
1,879 Sunless Daybreak [Heavy] 663,005 588 - 351 - 8 - 46 - 55 258 2019-11-10 20:19:10
3,125 Big Dog 165,150 119 - 168 - 0 - 14 - 8 58 2019-11-10 20:15:09
1,715 Jazzman - Super Mario Bros 458,640 565 - 153 - 17 - 42 - 55 119 2019-11-06 18:30:13
526 FrainBreeze 643,950 690 - 247 - 17 - 69 - 101 219 2019-11-06 18:28:10
9,842 Dazzling Soul 523,130 655 - 267 - 21 - 58 - 86 108 2019-11-06 18:25:27
1,798 16bitFruit 406,790 518 - 162 - 12 - 40 - 46 90 2019-11-06 18:22:13
2,954 Sunny Side Up 591,295 725 - 240 - 19 - 58 - 76 145 2019-11-06 18:19:24
713 Phantom Of The Opera 486,845 594 - 119 - 16 - 24 - 51 135 2019-11-06 18:17:03
2,099 We Will Fly 503,255 665 - 120 - 3 - 20 - 23 111 2019-11-06 18:12:35
650 Seiran's Mad Hammer 732,140 680 - 164 - 8 - 18 - 41 319 2019-11-06 18:10:12
7,531 Famouz 223,675 259 - 104 - 3 - 26 - 24 61 2019-11-06 18:07:08
687 Unpause the Heat 505,020 688 - 183 - 15 - 39 - 72 89 2019-11-06 18:05:46
3,858 Toono Youkai Zensen 556,690 666 - 149 - 7 - 23 - 42 157 2019-11-06 18:02:59
8,704 Into The Night 136,900 138 - 53 - 1 - 11 - 11 50 2019-11-06 17:59:40
3,095 Homosexual Love Scene 678,585 747 - 176 - 5 - 20 - 37 226 2019-11-06 17:58:09
4,806 Yoshi's Cookie 284,910 183 - 54 - 4 - 5 - 13 171 2019-11-06 17:55:09
2,850 Blue Marine 597,505 604 - 137 - 16 - 23 - 56 235 2019-11-06 17:52:34
9,491 Etude To A Dragon 499,950 623 - 116 - 4 - 26 - 38 134 2019-11-06 17:45:54
10,511 Sepia 449,740 598 - 121 - 7 - 36 - 33 99 2019-11-06 17:42:51
634 Psycho Soup 1,114,890 743 - 64 - 0 - 4 - 6 690 2019-11-06 17:40:02
5,294 Toph's OP 643,050 598 - 136 - 6 - 10 - 24 280 2019-11-06 17:37:24
55 Who's the Spook 262,995 245 - 133 - 10 - 48 - 50 107 2019-11-06 17:34:30
5,553 Toph's OP 600,400 580 - 156 - 4 - 10 - 31 242 2019-11-04 18:21:37
5,771 Undici 146,935 181 - 109 - 42 - 54 - 58 33 2019-11-04 18:17:25
1,218 Spear of Justice 216,295 231 - 56 - 3 - 26 - 13 82 2019-11-04 18:16:43
915 Gruntilda's Final Battle 850,020 1,046 - 300 - 24 - 104 - 93 225 2019-11-04 18:15:45
2,354 Champion Freeverse 672,485 670 - 147 - 4 - 20 - 23 270 2019-11-04 18:08:58
924 Gruntilda's Final Battle 886,550 1,022 - 307 - 51 - 94 - 132 269 2019-11-03 14:00:27
2,316 Champion Freeverse 607,245 689 - 121 - 6 - 25 - 28 203 2019-11-03 13:56:54
2,084 Megalovania 116,260 123 - 34 - 2 - 15 - 10 44 2019-10-21 02:06:19
10,579 Canon In WHEE 1,550 1 - 0 - 0 - 0 - 0 1 2019-10-21 02:05:46
1,224 Spear of Justice 203,900 206 - 73 - 3 - 20 - 22 77 2019-10-21 02:05:20
1,130 Spear of Justice 205,755 257 - 134 - 27 - 115 - 114 64 2019-10-21 02:04:43
19,430 Mario Eurobeat 249,015 281 - 71 - 2 - 21 - 33 82 2019-10-21 02:03:35
4,271 Garden Party 64,380 37 - 6 - 0 - 2 - 0 43 2019-10-21 02:02:21
2,070 Tron From Hell 588,475 489 - 26 - 1 - 2 - 3 313 2019-10-21 02:01:50
2,340 Honolulu [FC] 522,540 324 - 16 - 0 - 0 - 3 340 2019-10-21 01:59:25
2,371 Theme of the Dragoon Knights [FC] 291,300 183 - 6 - 0 - 0 - 0 189 2019-10-21 01:57:49
863 Child Protective Services Theme Song [Oni] 112,795 149 - 67 - 8 - 36 - 43 24 2019-10-21 01:56:45
826 Child Protective Services Theme Song [Heavy] 476,370 651 - 240 - 20 - 74 - 92 76 2019-10-21 01:56:07
2,287 Fast Rap Battle 540,565 533 - 123 - 4 - 17 - 18 219 2019-10-21 01:54:03
946 Gruntilda's Final Battle 752,045 937 - 370 - 47 - 120 - 122 172 2019-10-21 01:51:00
3,924 Dating Start! 185,145 111 - 11 - 0 - 3 - 0 122 2019-10-20 21:59:45
5,965 Undici 135,375 166 - 89 - 18 - 31 - 39 29 2019-10-16 21:52:11
5,620 Jumper 247,130 132 - 34 - 0 - 2 - 10 166 2019-10-16 21:51:34
3,762 X-Dreamer Final Cut 893,805 574 - 31 - 2 - 1 - 11 570 2019-10-16 21:48:04
3,223 Hatten Carnival! v2 558,955 403 - 19 - 2 - 3 - 5 333 2019-10-16 21:44:06
8,197 Hatten Carnival! 502,345 550 - 80 - 1 - 9 - 21 181 2019-10-16 21:42:11
3,874 Champion Freeverse 478,155 382 - 93 - 4 - 30 - 22 252 2019-10-16 21:39:52
12,003 Toph's OP 128,245 117 - 25 - 0 - 6 - 6 59 2019-10-16 21:37:42
10,822 Toph's OP 317,055 180 - 37 - 2 - 7 - 3 210 2019-10-16 21:36:37
7,815 Endless Dream 628,690 771 - 114 - 16 - 29 - 30 182 2019-10-16 01:24:25
1,032 welc.moe 26,760 19 - 2 - 0 - 4 - 0 17 2019-10-16 01:16:31
4,654 Secrets and Lies 666,750 736 - 64 - 6 - 4 - 37 246 2019-10-16 01:10:12
2,395 Pulling Through 530,060 632 - 93 - 3 - 12 - 28 161 2019-10-16 01:06:17
7,754 Etude To A Dragon 696,860 646 - 109 - 9 - 5 - 18 313 2019-10-16 00:55:54
6,547 Teh Tricky Techno 242,600 337 - 88 - 6 - 42 - 13 46 2019-10-16 00:53:28
538 welc.moe 763,395 855 - 139 - 14 - 33 - 31 265 2019-10-16 00:52:25
5,365 Toph's OP 684,145 608 - 112 - 13 - 17 - 25 324 2019-10-16 00:48:31
1,846 Princess Lolitits 336,805 409 - 81 - 8 - 20 - 33 96 2019-10-16 00:46:02
1,336 (The title is) TOO LONG to write here. 190,135 136 - 26 - 3 - 6 - 6 110 2019-10-16 00:07:04
13,559 Delirium 583,410 784 - 194 - 20 - 80 - 122 125 2019-10-16 00:06:22
3,422 Nyanyanyanyanyanyanya! 365,120 459 - 134 - 30 - 43 - 75 89 2019-10-16 00:03:58
5,117 Euphoria [KaW] 757,120 735 - 118 - 6 - 11 - 25 324 2019-10-16 00:02:05
557 Chaotic WHITE 535,965 674 - 100 - 13 - 21 - 22 144 2019-10-15 23:58:12
4,233 For Your Love 603,105 700 - 109 - 6 - 12 - 24 192 2019-10-15 23:55:10
1,570 Blackout [Breathe Carolina] 584,775 695 - 79 - 4 - 10 - 16 184 2019-10-15 23:51:31
5,103 Euro Freak 720,155 837 - 99 - 10 - 9 - 9 235 2019-10-15 23:40:11
19,173 Euro Freak 51,875 35 - 3 - 0 - 20 - 0 38 2019-10-15 21:24:24
1,936 Princess Lolitits 334,605 390 - 99 - 10 - 19 - 39 99 2019-10-13 21:32:49
3,203 XP Sounds Attempt 518,165 615 - 147 - 10 - 30 - 38 149 2019-10-13 21:30:58
6,155 X-Dreamer Final Cut 658,655 552 - 46 - 5 - 5 - 16 344 2019-10-13 21:28:55
7,464 Infernoplex 836,890 1,224 - 151 - 25 - 55 - 58 139 2019-10-13 21:26:45
925 Gruntilda's Final Battle 849,855 1,014 - 307 - 52 - 101 - 141 239 2019-10-13 21:22:44
1,996 Champion Freeverse 713,615 736 - 82 - 3 - 20 - 35 293 2019-10-13 21:19:15
4,650 Toph's OP 541,135 647 - 81 - 6 - 16 - 18 168 2019-10-13 21:10:37
193 Lavender Town (Fairytale Remix) [FC] 204,480 86 - 55 - 1 - 0 - 0 142 2019-10-13 21:08:49
12,275 X-Dreamer Final Cut 484,245 469 - 132 - 1 - 6 - 10 192 2019-10-02 21:26:34
54 The Little Devil's Heart-Pounding Amusement Park [Oni] 932,015 1,336 - 732 - 77 - 442 - 165 132 2019-10-02 21:19:49
85 Ra Variationen 88,235 77 - 60 - 3 - 18 - 10 35 2019-10-02 21:16:04
7,762 Etude To A Dragon 635,325 651 - 102 - 1 - 15 - 9 254 2019-10-01 23:36:01
4,699 Yoshi's Cookie 190,550 190 - 45 - 1 - 10 - 14 77 2019-10-01 23:33:39
10,315 Hatten Carnival! 483,465 523 - 95 - 2 - 20 - 11 176 2019-10-01 23:29:56
12,797 Hanabi 474,775 560 - 327 - 8 - 81 - 74 103 2019-10-01 23:05:23
858 Metal Crusher 453,700 412 - 112 - 4 - 14 - 29 201 2019-10-01 23:02:57
10,387 X-Dreamer Final Cut 428,580 506 - 87 - 1 - 14 - 18 131 2019-10-01 23:00:34
937 Gruntilda's Final Battle 664,950 940 - 371 - 39 - 124 - 139 85 2019-10-01 22:57:14
10,016 Infernoplex 731,575 929 - 420 - 13 - 93 - 88 135 2019-10-01 22:52:24
3,183 Champion Freeverse 491,785 492 - 287 - 4 - 58 - 49 161 2019-10-01 22:48:02
6,396 Toph's OP 414,370 532 - 178 - 8 - 32 - 35 83 2019-10-01 22:43:37
1,537 Toph's OP Remix 545,915 633 - 308 - 3 - 56 - 37 131 2019-10-01 22:41:01
2,783 Pollyanna [FC] 157,175 94 - 9 - 0 - 0 - 0 103 2019-10-01 22:37:29
1,283 Gruntilda's Final Battle 325,085 196 - 17 - 0 - 1 - 4 213 2019-09-16 17:58:33
6,195 Infernoplex 997,265 1,277 - 141 - 6 - 31 - 29 266 2019-09-16 17:57:05
4,625 Toph's OP 572,240 647 - 79 - 9 - 15 - 9 199 2019-09-16 17:52:40
1,907 Megalovania 140,530 145 - 35 - 1 - 22 - 4 58 2019-09-16 17:50:15
2,577 Megalovania 56,490 35 - 2 - 0 - 1 - 0 37 2019-09-16 17:49:40
669 Metal Crusher 496,790 478 - 53 - 5 - 6 - 5 221 2019-09-16 17:41:35
1,103 Spear of Justice 310,970 271 - 42 - 6 - 38 - 9 162 2019-09-16 17:40:12
1,161 Spear of Justice 205,425 239 - 34 - 1 - 27 - 3 73 2019-09-16 17:39:21
4,191 Song of Storms Dubstep Rap Remix 422,900 357 - 21 - 1 - 4 - 2 222 2019-09-16 17:26:44
3,405 XP Sounds Attempt 523,790 575 - 171 - 7 - 49 - 34 176 2019-09-14 21:37:42
16,524 Be Princess 130,655 115 - 12 - 1 - 3 - 1 65 2019-09-14 21:27:19
67,259 The Games We Played [Part 2] 44,770 46 - 5 - 1 - 6 - 5 20 2019-09-14 21:24:04
4,997 Yoshi's Cookie 189,525 179 - 55 - 2 - 10 - 3 79 2019-09-14 21:19:40
1,691 Jumper 477,325 540 - 62 - 7 - 3 - 9 164 2019-09-14 21:18:16
1,459 Garden Party 358,575 300 - 21 - 2 - 1 - 0 188 2019-09-14 21:16:23
6,015 Ninja Turtles Theme 338,325 288 - 35 - 0 - 2 - 4 171 2019-09-14 21:15:08
3,259 ReRicked 431,945 360 - 36 - 1 - 3 - 4 225 2019-09-14 21:14:03
108 Old Skool 824,255 711 - 99 - 2 - 13 - 5 410 2019-09-14 21:12:32
136 Old Skool 341,405 305 - 29 - 0 - 4 - 4 167 2019-09-14 21:09:09
2,153 Champion Freeverse 704,800 704 - 119 - 3 - 15 - 32 290 2019-09-14 21:02:10
733 Megalovania 568,050 826 - 481 - 45 - 278 - 191 69 2019-09-14 20:57:43
850 Dating Start! [FC] 1,133,970 689 - 51 - 1 - 0 - 3 741 2019-09-14 20:53:22
708 Metal Crusher 540,455 463 - 70 - 5 - 4 - 24 268 2019-09-14 20:49:32
636 Spear of Justice 570,995 760 - 229 - 44 - 108 - 96 123 2019-09-14 20:46:05
1,363 Spear of Justice 101,765 61 - 9 - 0 - 4 - 1 67 2019-09-14 20:43:56
1,955 Princess Lolitits 420,330 392 - 87 - 15 - 24 - 29 188 2019-09-14 20:43:27
21,065 Etude To A Dragon 342,485 263 - 22 - 1 - 7 - 5 194 2019-09-14 20:40:32
1,203 Dim Wood 758,570 675 - 164 - 4 - 12 - 14 346 2019-09-14 20:37:48
31 A small journey that starts from a morning glow 96,855 80 - 23 - 0 - 27 - 5 55 2019-09-14 20:34:44
18,139 Etude To A Dragon 527,170 423 - 84 - 12 - 16 - 64 277 2019-09-14 08:32:02
7,351 Infernoplex 872,290 1,225 - 155 - 29 - 46 - 71 170 2019-09-14 08:29:08
10,643 Okusenman! -Hardcore Mix- 254,555 269 - 41 - 2 - 14 - 22 100 2019-09-14 08:24:52
2,285 Smash Podcast 536,890 472 - 74 - 4 - 16 - 16 262 2019-09-14 08:23:53
1,525 PUNK FLUFFY UNICORNS DANCING ON RAINBOWS 97,020 85 - 14 - 0 - 8 - 5 49 2019-09-14 08:22:18
1,266 Clockwork Gearman 692,190 441 - 49 - 5 - 3 - 9 437 2019-09-14 08:21:47
2,305 Ochitsukeruwakenaiwayo! [Standard] 487,740 539 - 103 - 5 - 9 - 26 166 2019-09-14 08:17:44
8,691 Twilight Techno 888,305 964 - 130 - 5 - 8 - 22 325 2019-09-14 08:15:24
1,221 Pork and Beans 652,690 835 - 169 - 11 - 26 - 29 155 2019-09-14 08:11:01
112 8bit Adventurer 158,450 202 - 83 - 5 - 43 - 21 38 2019-09-14 07:55:58
2,908 Pork and Beans 183,920 175 - 33 - 5 - 8 - 10 81 2019-09-13 22:42:00
5,310 Video Out A 515,430 595 - 127 - 5 - 24 - 29 161 2019-09-13 22:41:03
4,736 Maple Leaf Rag 948,590 1,064 - 78 - 6 - 7 - 11 344 2019-09-13 22:36:37
5,033 Snowball Fight 666,560 641 - 99 - 7 - 10 - 25 290 2019-09-13 22:32:25
1,666 Politically Correct Holiday Song 729,840 493 - 60 - 4 - 3 - 5 443 2019-09-13 22:30:12
1,294 It's Too Loud 367,510 373 - 45 - 1 - 3 - 7 151 2019-09-13 22:28:17
135 8bit Adventurer 81,870 68 - 38 - 4 - 16 - 12 39 2019-09-13 22:26:47
17,783 ReRicked 75,400 49 - 2 - 0 - 10 - 0 51 2019-09-09 18:00:28
16,866 ReRicked 118,590 75 - 6 - 0 - 1 - 0 76 2019-09-09 17:56:52
7,303 Mario Eurobeat 527,905 338 - 35 - 0 - 2 - 0 333 2019-09-09 17:55:43
4,946 Toph's OP 541,350 628 - 97 - 9 - 16 - 13 174 2019-09-09 17:54:12
2,067 Megalovania 120,940 110 - 23 - 3 - 13 - 1 58 2019-09-09 17:52:23
3,139 X-Dreamer Final Cut 826,525 581 - 24 - 1 - 2 - 3 501 2019-09-09 17:08:11
52,705 X-Dreamer Final Cut 136,835 78 - 13 - 0 - 2 - 1 91 2019-09-09 17:03:58
2,393 Butterflies (Short Edit) 718,690 811 - 116 - 6 - 19 - 35 247 2019-09-08 20:05:32
4,010 Road To You 754,790 718 - 71 - 3 - 8 - 16 343 2019-09-08 20:02:00
1,682 Eclipse 299,265 349 - 71 - 8 - 13 - 31 92 2019-09-08 19:58:59
1,387 Tutti Frutti Summer Love 700,185 937 - 151 - 14 - 30 - 58 153 2019-09-08 19:56:56
1,182 Touch Me 690,865 899 - 140 - 11 - 31 - 54 168 2019-09-08 19:48:36
4,571 August (Hyper Euro Twin Turbo Mix) 530,015 471 - 50 - 5 - 6 - 10 259 2019-09-08 19:43:51
3,246 ReRicked 484,255 359 - 38 - 1 - 2 - 4 277 2019-09-08 19:35:35
3,439 Honolulu [FC] 517,530 306 - 34 - 0 - 0 - 6 340 2019-09-08 19:33:07
3,097 Honolulu 353,930 313 - 26 - 0 - 1 - 3 175 2019-09-08 19:27:18
3,209 I Am Robot 486,000 393 - 49 - 1 - 2 - 3 257 2019-09-08 19:25:39
1,548 Megalovania 198,030 239 - 70 - 6 - 34 - 23 58 2019-09-08 19:23:28
606 Spear of Justice 612,645 807 - 224 - 27 - 83 - 128 134 2019-09-08 19:22:17
749 Metal Crusher 475,565 458 - 62 - 11 - 11 - 29 210 2019-09-08 19:14:34
1,273 Dating Start! 806,580 641 - 89 - 9 - 2 - 16 430 2019-09-08 19:12:00
766 Black 816,540 910 - 379 - 71 - 147 - 176 257 2019-09-08 19:08:54
1,029 Spider Dance 533,160 690 - 187 - 17 - 58 - 86 121 2019-09-08 19:05:04
1,160 Gangsters Paradise (Candyland's OG Remix) 586,720 704 - 174 - 16 - 35 - 68 163 2019-09-08 18:58:04
908 Gruntilda's Final Battle 821,155 1,019 - 307 - 44 - 104 - 145 209 2019-09-08 18:54:28
911 Gruntilda's Final Battle 767,190 1,002 - 325 - 37 - 110 - 111 161 2019-09-08 18:49:25
9,348 Gameboy Rave! 306,690 355 - 51 - 7 - 9 - 9 100 2019-09-06 23:26:12
5,238 Entry of the Gladiators, Op.68 260,220 156 - 23 - 1 - 22 - 7 175 2019-09-06 23:22:43
1,648 The Battle With the Betrayed 1,417,870 876 - 89 - 3 - 1 - 13 912 2019-09-05 22:15:30
1,820 Firebird 567,730 483 - 68 - 2 - 5 - 9 285 2019-09-05 22:06:47
905 Galaxy in Toybox [Light] 545,235 655 - 64 - 1 - 11 - 13 171 2019-09-05 21:58:57
5,961 {Arabian Assassin} 422,370 528 - 103 - 5 - 23 - 25 111 2019-09-05 21:43:56
2,489 Badinerie 416,475 450 - 53 - 2 - 5 - 8 156 2019-09-05 21:34:16
3,395 Sword Strike 519,210 541 - 103 - 7 - 15 - 20 198 2019-09-05 21:27:28
6,327 Robotix 571,705 676 - 120 - 9 - 17 - 16 172 2019-09-05 21:10:42
1,362 Nintendon't 751,145 889 - 205 - 14 - 45 - 50 220 2019-09-05 21:08:36
4,617 X-Dreamer Final Cut 650,490 571 - 28 - 2 - 7 - 10 331 2019-09-05 21:03:55
2,727 Honolulu 397,310 320 - 18 - 0 - 2 - 1 217 2019-09-05 21:00:03
1,688 Princess Lolitits 344,320 433 - 56 - 12 - 17 - 31 96 2019-09-05 20:57:56
1,850 Princess Lolitits 349,780 409 - 79 - 9 - 21 - 44 110 2019-09-05 20:56:44
1,052 Gruntilda's Final Battle 589,405 720 - 161 - 20 - 69 - 79 171 2019-09-05 20:51:27
5,022 Yoshi's Cookie 248,565 183 - 47 - 6 - 10 - 12 138 2019-09-05 20:48:42
7,887 Toph's OP 386,960 473 - 122 - 2 - 21 - 17 100 2019-09-05 20:47:16
21,035 Fig Leaf Rag 116,805 97 - 11 - 0 - 5 - 1 62 2019-09-05 20:45:18
5,490 Jumper 250,075 143 - 22 - 5 - 6 - 2 167 2019-09-05 20:35:08
717 welc.moe 335,435 429 - 86 - 3 - 29 - 17 85 2019-09-04 18:00:37
6,194 Infernoplex 958,370 1,274 - 143 - 13 - 25 - 31 226 2019-09-04 17:58:23
5,622 Toph's OP 535,265 595 - 124 - 9 - 22 - 38 181 2019-09-04 17:53:58
14,778 Toph's OP 3,605 5 - 4 - 1 - 10 - 10 3 2019-09-04 17:51:33
14,657 Toph's OP 11,775 5 - 5 - 6 - 4 - 22 9 2019-09-04 17:51:26
14,572 Toph's OP 7,960 5 - 7 - 5 - 5 - 22 5 2019-09-04 17:51:19
13,846 Toph's OP 11,770 13 - 9 - 3 - 8 - 27 5 2019-09-04 17:51:12
13,797 Toph's OP 22,945 12 - 12 - 5 - 5 - 34 15 2019-09-04 17:51:04
14,945 Toph's OP 3,505 4 - 3 - 4 - 8 - 13 3 2019-09-04 17:50:55
15,109 Toph's OP 3,065 3 - 1 - 0 - 2 - 12 2 2019-09-04 17:50:47
13,097 Toph's OP 74,690 60 - 1 - 1 - 2 - 1 42 2019-09-04 17:50:21
735 Metal Crusher 406,930 454 - 75 - 3 - 10 - 23 140 2019-09-04 17:49:05
7,045 Ninja Turtles Theme [FC] 490,035 280 - 40 - 5 - 0 - 12 325 2019-09-04 17:47:04
3,635 Theme of the Dragoon Knights [FC] 288,825 174 - 15 - 0 - 0 - 0 189 2019-09-04 17:44:49
2,393 Fall into Night [FC] 112,600 71 - 2 - 0 - 0 - 0 73 2019-09-04 17:39:03
3,593 Syndrome Craze 370,360 356 - 16 - 0 - 2 - 11 171 2019-09-04 17:36:39
4,522 iPatch's OP 504,295 446 - 47 - 4 - 3 - 11 247 2019-09-04 17:33:29
4,030 Start Something 559,400 335 - 31 - 1 - 1 - 6 367 2019-09-04 17:31:45
1,111 Garden Party [FC] 498,050 310 - 13 - 1 - 0 - 4 324 2019-09-04 17:29:18
3,009 ReRicked 470,650 364 - 33 - 1 - 2 - 3 262 2019-09-04 17:27:55
2,471 Kire Kire Mayoi 709,580 566 - 46 - 0 - 1 - 3 386 2019-09-04 17:25:43
8,801 Reluctantly Accepting Temporary Overexhaustion 391,045 629 - 505 - 72 - 394 - 130 27 2019-09-04 17:22:26
18,460 Reluctantly Accepting Temporary Overexhaustion 96,150 126 - 115 - 35 - 86 - 102 22 2019-09-04 17:20:39
3,887 Science Genius Girl (Robotkid's Lameboy Mix) 737,760 738 - 89 - 7 - 8 - 26 310 2019-09-04 17:16:39
1,587 Eclipse 322,135 362 - 60 - 5 - 14 - 20 111 2019-09-04 00:28:34
4,095 Fig Leaf Rag 804,550 995 - 105 - 5 - 15 - 10 233 2019-09-04 00:27:33
2,860 Badinerie 401,935 443 - 51 - 4 - 12 - 12 148 2019-09-04 00:23:56
2,531 Lady's Cake 349,890 317 - 36 - 6 - 5 - 7 167 2019-09-04 00:22:22
2,832 Kire Kire Mayoi 668,155 558 - 48 - 1 - 6 - 7 350 2019-09-04 00:21:07
862 Tied The Room Together 262,770 304 - 43 - 5 - 17 - 13 89 2019-09-04 00:19:24
3,505 Resurrection In Progress 685,070 636 - 36 - 4 - 5 - 15 327 2019-09-04 00:17:28
785 Exodus (On vocal ver.) 744,480 683 - 30 - 2 - 1 - 11 361 2019-09-04 00:14:23
2,825 ReRicked [FC] 610,095 365 - 34 - 1 - 0 - 3 400 2019-09-04 00:10:59
15,805 ReRicked 157,615 163 - 13 - 0 - 5 - 3 66 2019-09-04 00:09:00
3,673 ReRicked 468,120 359 - 31 - 1 - 9 - 6 265 2019-09-04 00:07:55
3,577 Tsugaru 180 New Version 641,605 589 - 52 - 1 - 2 - 4 304 2019-09-04 00:02:26
662 Insignia 776,650 817 - 76 - 4 - 18 - 12 312 2019-09-03 23:59:43
1,399 Garden Party 358,140 303 - 17 - 3 - 1 - 2 187 2019-09-03 23:56:16
2,845 Shin Trigger 482,135 544 - 44 - 1 - 10 - 6 174 2019-09-03 23:53:34
732 sign of hero -the third dream fragment- 733,385 614 - 57 - 0 - 3 - 3 381 2019-09-03 23:51:08
177 The Hop 520,505 535 - 67 - 8 - 11 - 10 211 2019-09-03 00:13:09
3,698 Harukanaru Kokyou 388,145 514 - 82 - 7 - 17 - 11 88 2019-09-03 00:10:58
3,580 Desperation ~Pandemic Day Mix~ 538,545 542 - 53 - 2 - 4 - 0 227 2019-09-03 00:09:18
3,816 Synesthetic 631,690 690 - 54 - 6 - 19 - 5 243 2019-09-02 23:15:02
845 Once Upon A December 500,160 576 - 62 - 4 - 9 - 6 169 2019-09-02 23:11:21
1,784 Jumper 475,270 534 - 66 - 4 - 8 - 16 166 2019-09-02 23:08:32
2,363 Humoresque No. 7 587,535 597 - 100 - 11 - 6 - 3 233 2019-09-02 23:06:42
5,099 H.T.I.J. 878,960 720 - 48 - 2 - 1 - 2 470 2019-09-02 23:03:50
2,520 False Strawberry 979,805 653 - 51 - 6 - 2 - 4 607 2019-09-02 23:00:49
4,301 Fahrenheit 481,670 592 - 42 - 2 - 11 - 9 148 2019-09-02 22:57:54
6,359 Ancient's Death 922,635 692 - 51 - 0 - 3 - 3 529 2019-09-02 22:55:30
3,572 Water Like Pudding 434,140 485 - 30 - 2 - 3 - 2 160 2019-09-02 22:52:22
466 Valkyrie 458,170 434 - 30 - 2 - 9 - 5 214 2019-09-02 22:50:06
3,124 Pavlov's Dog 474,710 448 - 29 - 1 - 2 - 5 221 2019-09-02 22:48:17
2,716 Snake Riddim 786,355 751 - 55 - 8 - 10 - 8 361 2019-09-02 22:44:06
4,404 Monster Mash 604,615 516 - 91 - 2 - 4 - 4 297 2019-09-02 22:40:34
7,221 Mario Eurobeat [FC] 570,610 339 - 33 - 3 - 0 - 4 375 2019-09-02 22:38:06
1,934 Streets 573,955 760 - 126 - 17 - 29 - 32 130 2019-09-02 22:34:56
2,084 Wish (Reprise) 576,755 743 - 130 - 13 - 34 - 41 143 2019-09-02 22:31:10
3,933 Science Genius Girl (Robotkid's Lameboy Mix) 735,675 734 - 92 - 11 - 5 - 19 308 2019-09-02 22:27:28
2,414 Heavy Danger 678,000 426 - 29 - 1 - 1 - 1 436 2019-09-02 22:22:59
1,325 Pink Fluffy Unicorns Dancing on Rainbows [FC] 551,600 346 - 12 - 0 - 0 - 0 358 2019-09-02 22:19:37
1,695 Pink Fluffy Unicorns Dancing on Rainbows 484,345 340 - 17 - 0 - 1 - 1 293 2019-09-02 22:17:18
4,042 Prototypical 922,720 812 - 25 - 5 - 3 - 5 470 2019-09-02 22:10:48
4,204 ABCDEath 276,080 317 - 51 - 7 - 8 - 10 90 2019-09-02 22:05:44
1,713 Laser Shooter 497,535 682 - 63 - 8 - 19 - 22 111 2019-09-02 22:02:46
6,588 Laser Shooter 52,875 30 - 5 - 0 - 0 - 0 35 2019-09-02 22:00:19
6,543 Sepia 768,860 675 - 66 - 6 - 15 - 11 384 2019-09-02 21:58:37
919 Live and Learn (Zen Death Squad Remix) 607,800 639 - 76 - 8 - 15 - 17 240 2019-09-02 21:44:20
1,430 LUV TO ME 2011 687,045 819 - 148 - 13 - 20 - 31 202 2019-09-02 21:28:39
3,871 Rumia, Sealed Youkai of the Night 815,400 953 - 162 - 18 - 25 - 27 254 2019-09-02 21:25:24
518 Alone 469,700 484 - 108 - 6 - 17 - 13 179 2019-09-02 21:21:27
1,180 elegante 821,015 774 - 177 - 18 - 31 - 37 356 2019-09-02 21:17:57
1,714 Destination Unknown 821,440 688 - 114 - 16 - 31 - 29 421 2019-09-02 21:14:38
1,574 Automata 643,340 693 - 94 - 8 - 18 - 26 242 2019-09-02 21:12:25
127 Starchaser 696,320 676 - 119 - 9 - 8 - 11 294 2019-09-02 21:10:03
888 Gruntilda's Final Battle 841,110 1,060 - 276 - 58 - 80 - 109 206 2019-09-02 21:06:53
5,990 Robotix 712,160 697 - 95 - 9 - 21 - 15 309 2019-09-02 21:02:32
1,572 Princess Lolitits 417,465 442 - 55 - 6 - 15 - 22 164 2019-09-02 20:59:14
1,658 Princess Lolitits 349,500 440 - 49 - 7 - 22 - 27 101 2019-09-02 20:57:18
6,760 Teh Tricky Techno 231,955 322 - 108 - 5 - 38 - 17 37 2019-09-02 20:55:23
816 Silent Wind 803,275 608 - 48 - 3 - 1 - 9 456 2019-09-02 20:54:07
5,082 J219 (Ura-Rokkou Mix) 561,860 711 - 111 - 21 - 23 - 37 147 2019-09-02 20:51:53
4,700 Asteroid Run 481,290 442 - 104 - 8 - 27 - 24 218 2019-09-02 20:42:59
5,078 Asteroid Run 293,310 324 - 100 - 2 - 20 - 15 94 2019-09-02 20:37:38
4,987 Toph's OP 574,130 625 - 102 - 8 - 15 - 23 207 2019-09-01 09:22:55
6,234 Toph's OP 499,225 572 - 123 - 14 - 41 - 63 164 2019-09-01 09:20:47
11,109 The Prototype 217,195 154 - 59 - 0 - 15 - 4 121 2019-09-01 09:18:53
1,189 KISS CANDY FLAVOR [Heavy] 62,140 69 - 18 - 0 - 12 - 2 23 2019-09-01 09:18:16
1,046 Alive (Pegboard Nerds Remix) [Heavy] 728,045 941 - 230 - 11 - 86 - 35 174 2019-09-01 09:16:39
930 Arsonist [Standard] 416,835 559 - 76 - 3 - 14 - 17 93 2019-09-01 09:03:10
6,442 Eternal Nightmare 888,595 1,214 - 153 - 4 - 26 - 17 187 2019-09-01 09:00:01
5,128 Start Something 489,990 327 - 34 - 0 - 7 - 2 303 2019-09-01 08:55:21
8,448 Palindrome 279,725 374 - 44 - 3 - 16 - 14 67 2019-09-01 08:53:22
4,800 Legend of the Starfighter 640,620 810 - 123 - 9 - 28 - 26 170 2019-09-01 08:44:30
14,964 Prison Break 189,070 179 - 50 - 6 - 32 - 27 87 2019-09-01 08:41:20
1,774 bitmapstar 231,200 176 - 10 - 0 - 1 - 2 132 2019-09-01 08:39:31
4,463 Strawberry Music 404,175 506 - 116 - 5 - 34 - 38 105 2019-09-01 08:36:23
51 Sayonara Cosmonaut 667,035 1,061 - 692 - 99 - 494 - 256 46 2019-09-01 08:34:22
46 Dirty 889,520 1,040 - 197 - 11 - 52 - 57 280 2019-09-01 08:30:27
56 Area A (Shatterhand) 757,595 1,204 - 741 - 64 - 550 - 320 65 2019-09-01 08:26:32
51 Steel River 441,740 570 - 165 - 7 - 80 - 36 108 2019-09-01 08:22:22
51 That's Gonna Be 29,750 18 - 17 - 1 - 6 - 1 17 2019-09-01 08:20:06
51 Verse IV 483,710 779 - 578 - 54 - 442 - 132 33 2019-09-01 08:19:45
6,170 Toph's OP 447,405 565 - 140 - 5 - 40 - 36 111 2019-09-01 08:16:09
3,506 XP Sounds Attempt 487,010 563 - 167 - 7 - 65 - 40 152 2019-09-01 08:14:13
99 Old Skool 572,750 661 - 115 - 9 - 40 - 26 190 2019-09-01 08:11:53
8,175 Infernoplex 929,390 1,163 - 201 - 15 - 76 - 40 258 2019-09-01 08:09:06
2,357 Champion Freeverse 650,985 680 - 125 - 6 - 30 - 21 252 2019-09-01 08:04:55
718 Psycho Soup 700,535 722 - 76 - 5 - 8 - 13 285 2019-09-01 08:01:37
3,518 MegaScorcher 523,160 688 - 127 - 5 - 26 - 19 118 2019-09-01 07:58:56
4,081 MegaScorcher 584,620 634 - 172 - 4 - 36 - 22 200 2019-09-01 07:49:05
5,890 Horizon Remix 699,105 989 - 298 - 13 - 99 - 91 105 2019-09-01 07:41:27
7,835 J219 (Ura-Rokkou Mix) 429,835 575 - 213 - 18 - 60 - 69 74 2019-09-01 07:37:02
970 Introduction 402,535 397 - 89 - 6 - 26 - 28 168 2019-09-01 07:29:15
3,236 Casio Destroy Toy 871,180 1,015 - 121 - 3 - 27 - 57 289 2019-09-01 07:27:33
9,043 bbblow 625,510 630 - 123 - 3 - 18 - 20 251 2019-09-01 07:23:58
11,117 Tribal Revival 627,635 722 - 216 - 17 - 44 - 58 185 2019-09-01 07:21:44
43 Forgotten Story 534,430 628 - 85 - 3 - 7 - 17 168 2019-09-01 07:18:55
2,597 Earthquake On The Southern Texas Canyon 157,910 146 - 39 - 5 - 17 - 6 72 2019-09-01 07:16:34
6,517 Hero's Theme (w.i.p.) 557,165 695 - 266 - 23 - 118 - 96 139 2019-09-01 07:15:13
5,538 Clockwork Genesis 427,855 571 - 192 - 9 - 53 - 53 78 2019-09-01 07:12:46
6,137 Dragons Bane 461,920 576 - 150 - 10 - 26 - 31 112 2019-09-01 07:10:26
2,474 Princess Lolitits 272,755 292 - 161 - 14 - 51 - 54 84 2019-09-01 07:08:23
8,099 The Lunatic Princess 219,915 239 - 117 - 10 - 50 - 38 72 2019-09-01 07:06:46
25,913 Honolulu 131,380 104 - 20 - 0 - 4 - 4 70 2019-09-01 07:05:41
4,327 Honolulu 322,535 294 - 43 - 0 - 3 - 3 150 2019-09-01 07:05:14
5,088 Honolulu 387,740 281 - 55 - 1 - 3 - 3 219 2019-09-01 07:03:43
27,782 X-Dreamer Final Cut 344,805 363 - 111 - 0 - 13 - 17 119 2019-09-01 07:01:50
74 Amnolys 129,360 103 - 45 - 1 - 18 - 7 66 2019-09-01 06:59:48
3,453 Princess Lolitits 163,515 126 - 66 - 3 - 16 - 7 81 2019-08-31 12:17:08
1,018 Empty Garden 610,165 542 - 32 - 1 - 5 - 12 305 2019-08-29 22:45:56
6,892 Chaotic Sound 874,190 802 - 108 - 18 - 22 - 39 410 2019-08-29 22:43:48
2,965 The Final Fantasy 561,250 592 - 64 - 2 - 12 - 17 222 2019-08-29 22:41:01
5,378 Troglodytic Epica 988,695 1,272 - 175 - 12 - 23 - 28 248 2019-08-29 22:37:40
3,458 The Entertainer 952,820 1,332 - 126 - 2 - 26 - 24 194 2019-08-29 22:32:52
2,054 Piasolute 733,755 784 - 67 - 2 - 6 - 6 286 2019-08-29 22:28:54
2,972 Bricks [Light] 687,245 593 - 56 - 5 - 10 - 24 349 2019-08-29 22:25:36
1,643 32A5 475,790 537 - 92 - 0 - 18 - 14 161 2019-08-29 22:23:25
6,769 Euthanasia 510,190 649 - 131 - 3 - 31 - 17 127 2019-08-29 22:15:24
10,925 Etude To A Dragon 534,625 588 - 142 - 5 - 34 - 28 183 2019-08-29 22:11:39
919 CAPTAIN JACK (GRANDALE REMIX) 402,040 522 - 118 - 4 - 29 - 37 92 2019-08-29 22:08:23
7,334 X-Dreamer Final Cut 670,235 530 - 71 - 4 - 3 - 4 360 2019-08-29 22:05:42
4,584 Entry of the Gladiators, Op.68 277,550 258 - 72 - 0 - 13 - 6 120 2019-08-29 22:02:33
14,080 Electro Rush x8 336,770 443 - 228 - 8 - 108 - 77 65 2019-08-28 21:33:30
9,075 ROAR (Rage Mix) 413,115 513 - 131 - 8 - 34 - 48 106 2019-08-28 21:27:35
4,900 XP Sounds Attempt 112,470 128 - 28 - 4 - 21 - 17 41 2019-08-28 21:25:25
9,109 Infernoplex 791,365 1,059 - 292 - 11 - 93 - 58 158 2019-08-28 21:24:03
2,504 Princess Lolitits 262,890 307 - 130 - 12 - 69 - 49 80 2019-08-28 21:19:44
3,493 Fast Rap Battle 144,580 166 - 51 - 3 - 21 - 20 46 2019-08-28 21:18:25
1,472 Pembroke Welsh Corgi 556,960 431 - 48 - 2 - 4 - 8 308 2019-08-28 21:14:59
3,785 Pembroke Welsh Corgi 148,025 173 - 71 - 10 - 56 - 42 51 2019-08-28 21:04:38
1,784 I Am Robot [FC] 683,130 421 - 24 - 0 - 0 - 1 445 2019-08-28 21:02:57
4,244 CmR 7,750 5 - 0 - 0 - 0 - 0 5 2019-08-28 21:00:54
6,365 Arabesque 237,215 257 - 25 - 2 - 6 - 13 91 2019-08-28 21:00:02
51,372 Arabesque 36,355 37 - 31 - 12 - 34 - 32 18 2019-08-28 20:58:58
21,196 Shin Trigger 8,210 12 - 7 - 1 - 17 - 5 5 2019-08-28 20:58:25
4,268 Garden Party 17,090 21 - 22 - 8 - 37 - 24 11 2019-08-28 20:58:06
16,504 Theme of the Dragoon Knights 94,590 93 - 50 - 18 - 28 - 31 38 2019-08-28 20:57:33
5,299 XP Sounds Attempt 33,355 32 - 31 - 20 - 29 - 44 16 2019-08-28 20:56:32
1,411 Gruntilda's Final Battle 12,185 13 - 11 - 2 - 22 - 14 9 2019-08-28 20:55:55
1,425 Gruntilda's Final Battle 3,045 6 - 2 - 1 - 12 - 7 3 2019-08-28 20:55:41
1,433 Gruntilda's Final Battle 4,015 2 - 4 - 1 - 10 - 7 5 2019-08-28 20:55:34
1,308 Gruntilda's Final Battle 210,060 151 - 18 - 2 - 3 - 6 123 2019-08-28 20:55:20
905 Spear of Justice 300,715 379 - 100 - 11 - 46 - 29 79 2019-08-28 20:54:41
879 Spear of Justice 317,810 395 - 217 - 29 - 127 - 67 80 2019-08-28 20:53:26
912 Gruntilda's Final Battle 761,440 980 - 355 - 37 - 102 - 180 158 2019-08-28 20:51:32
25,645 Turkish March 86,615 84 - 40 - 3 - 21 - 12 36 2019-08-28 20:47:55
2,064 Princess Lolitits 306,625 355 - 137 - 4 - 22 - 35 81 2019-08-28 20:47:16
3,810 Pulling Through 411,420 496 - 196 - 12 - 36 - 39 96 2019-08-28 20:44:58
11,857 Etude To A Dragon 563,290 571 - 151 - 9 - 38 - 50 220 2019-08-28 20:38:22
808 My Catchy Lil Bassline 268,425 218 - 26 - 1 - 2 - 3 142 2019-08-28 20:33:38
914 My Catchy Lil Bassline 205,070 211 - 30 - 2 - 4 - 5 82 2019-08-28 20:32:16
5,420 Kaleidoscope 440,325 514 - 183 - 6 - 27 - 33 116 2019-08-28 20:30:19
10,929 The Games We Played [Part 2] 538,835 564 - 115 - 2 - 12 - 19 201 2019-08-28 20:28:16
12,349 Hatten Carnival! 415,665 480 - 136 - 1 - 23 - 33 122 2019-08-28 20:24:19
108 Start Over 543,610 762 - 617 - 43 - 319 - 182 55 2019-08-28 20:22:11
88 Eternal Peace Is Nothing But An Illusion 529,370 749 - 663 - 63 - 401 - 203 60 2019-08-28 20:17:38
130 Start Over 34,270 37 - 48 - 0 - 50 - 39 17 2019-08-28 20:11:28
121 Start Over 193,340 187 - 118 - 4 - 32 - 13 68 2019-08-28 20:01:44
124 Start Over 112,790 96 - 49 - 1 - 20 - 17 53 2019-08-28 19:47:03
94 Marble Mountain 467,845 579 - 179 - 10 - 30 - 54 110 2019-08-28 19:43:48
86 Gamma Stop Sending Me High Quality Rips 107,145 170 - 133 - 18 - 120 - 36 14 2019-08-28 19:41:56
113 LOSHAXI 29,380 33 - 32 - 4 - 25 - 2 10 2019-08-28 19:41:15
138 EBONY & IVORY [Standard] 126,910 93 - 36 - 4 - 20 - 8 72 2019-08-28 19:40:57
87 Old Skool 479,625 565 - 199 - 8 - 53 - 43 131 2019-08-28 19:39:03
92 Old Skool 291,470 269 - 91 - 5 - 18 - 10 124 2019-08-28 19:31:25
3,608 Princess Lolitits 143,365 89 - 87 - 8 - 33 - 36 81 2019-08-27 06:36:58
3,767 Princess Lolitits 94,145 70 - 69 - 4 - 29 - 28 46 2019-08-27 06:35:34
10,175 Secrets and Lies 566,930 480 - 118 - 2 - 19 - 37 277 2019-08-26 17:54:32
3,743 Fast Rap Battle 77,610 83 - 12 - 0 - 14 - 0 33 2019-08-26 17:52:14
3,453 Fast Rap Battle 245,050 182 - 47 - 1 - 9 - 12 135 2019-08-26 17:50:06
2,355 Princess Lolitits 292,400 319 - 143 - 5 - 51 - 42 94 2019-08-26 17:42:38
4,047 Princess Lolitits 82,800 51 - 4 - 0 - 1 - 2 54 2019-08-26 17:39:54
6,959 Undici 54,715 65 - 38 - 5 - 44 - 6 22 2019-08-26 17:38:29
1,913 Garden Party [FC] 489,215 277 - 47 - 0 - 0 - 3 324 2019-08-26 17:37:42
10,466 Toph's OP 223,165 230 - 78 - 3 - 15 - 15 80 2019-08-26 17:34:46
10,591 Toph's OP 326,750 203 - 69 - 1 - 9 - 7 199 2019-08-26 17:27:19
3,847 Champion Freeverse 522,230 378 - 117 - 3 - 25 - 13 290 2019-08-26 17:26:16
4,070 Champion Freeverse 308,110 283 - 40 - 0 - 8 - 3 144 2019-08-26 17:19:35
4,146 Champion Freeverse 392,130 243 - 34 - 0 - 9 - 4 252 2019-08-24 17:33:46
2,976 Inspector Gadget [Dr. Steel] 505,235 435 - 47 - 4 - 6 - 15 255 2019-08-24 17:31:42
6,642 Green Twilight FFR Edit 624,085 517 - 90 - 5 - 13 - 13 319 2019-08-24 17:28:41
2,618 Song For All Time 1,076,030 1,057 - 133 - 3 - 4 - 41 460 2019-08-24 17:25:55
1,916 Entry of the Gladiators, Op.68 474,420 491 - 76 - 6 - 8 - 19 186 2019-08-24 17:20:06
5,246 Get Ready 2 Rokk 862,630 957 - 110 - 2 - 8 - 30 309 2019-08-24 17:17:35
4,622 Wish (Kyrn Remix) 546,680 662 - 111 - 3 - 11 - 35 156 2019-08-24 17:13:30
5,343 Robot Army --_-- 485,550 450 - 58 - 4 - 12 - 20 226 2019-08-24 17:03:01
2,873 Garden Party 328,650 253 - 17 - 1 - 7 - 3 187 2019-08-24 16:42:59
25,746 Honolulu 169,030 109 - 16 - 0 - 4 - 4 106 2019-08-24 16:38:13
3,313 Honolulu 462,850 309 - 30 - 0 - 1 - 2 285 2019-08-24 16:18:30
3,995 Honolulu 391,255 299 - 38 - 1 - 2 - 4 217 2019-08-24 16:17:14
3,093 Shin Trigger 725,005 529 - 59 - 4 - 7 - 11 420 2019-08-24 16:15:09
1,596 Garden Party 355,590 296 - 23 - 3 - 2 - 4 187 2019-08-24 16:13:24
50 Start Over 567,705 876 - 476 - 55 - 334 - 224 60 2019-08-24 16:10:54
96 Wanderflux 298,755 574 - 554 - 89 - 657 - 176 33 2019-08-24 16:07:35
140 Wanderflux 1,620 2 - 2 - 0 - 13 - 0 4 2019-08-24 16:05:47
46 Marble Mountain 591,395 618 - 159 - 8 - 13 - 32 212 2019-08-24 16:03:19
55 LOSHAXI 108,160 168 - 117 - 9 - 107 - 37 17 2019-08-24 15:56:38
46 Gamma Stop Sending Me High Quality Rips 39,875 38 - 25 - 2 - 19 - 6 18 2019-08-24 15:55:59
43 Pikachu's Lament [Red] [FC] 1,134,165 695 - 43 - 2 - 0 - 1 740 2019-08-24 15:46:02
46 Old Skool 576,910 616 - 167 - 13 - 29 - 27 201 2019-08-24 15:41:22
64 EBONY & IVORY [Standard] 195,150 156 - 76 - 6 - 24 - 22 96 2019-08-24 15:34:52
13,455 The Games We Played [Part 1] 703,045 919 - 223 - 8 - 39 - 54 149 2019-08-24 15:30:54
12,587 The Games We Played [Part 5] 1,325,400 1,017 - 211 - 9 - 27 - 55 717 2019-08-24 15:27:32
10,372 The Games We Played [Part 4] 697,070 781 - 250 - 16 - 77 - 112 224 2019-08-24 15:23:35
11,930 The Games We Played [Part 3] 843,710 1,026 - 223 - 13 - 39 - 77 231 2019-08-24 15:20:19
10,261 The Games We Played [Part 2] 530,595 576 - 101 - 4 - 12 - 24 190 2019-08-24 15:16:25
7,212 The Games We Played [Part 1] 885,275 1,030 - 139 - 6 - 14 - 22 285 2019-08-24 15:14:08
8,745 The Games We Played [Part 1] 826,795 1,004 - 155 - 14 - 16 - 42 237 2019-08-23 17:09:07
932 Megalovania 382,690 511 - 376 - 46 - 203 - 218 63 2019-08-23 17:02:17
664 Spear of Justice 546,475 692 - 282 - 51 - 116 - 176 125 2019-08-23 17:00:12
944 Gruntilda's Final Battle 736,640 931 - 342 - 62 - 139 - 239 175 2019-08-23 16:56:36
3,644 Gruntilda's Lair 448,040 374 - 34 - 0 - 9 - 11 236 2019-08-23 16:53:17
2,409 Gruntilda's Lair 481,810 399 - 58 - 6 - 2 - 15 247 2019-08-23 16:51:23
1,589 Smoke Weed Everyday 238,780 237 - 40 - 2 - 8 - 10 100 2019-08-23 16:48:31
9,409 Gameboy Rave! 381,940 354 - 55 - 1 - 12 - 11 176 2019-08-23 16:47:26
18,255 X-Dreamer Final Cut 459,530 433 - 140 - 2 - 33 - 50 194 2019-08-23 16:45:34
25,535 Etude To A Dragon 225,615 168 - 31 - 0 - 7 - 7 127 2019-08-23 05:38:40
22,930 Etude To A Dragon 229,815 210 - 67 - 0 - 37 - 32 108 2019-08-23 05:28:48
3,506 Shin Trigger 719,465 509 - 80 - 3 - 7 - 24 420 2019-08-21 06:31:47
1,991 Garden Party 351,530 276 - 45 - 1 - 2 - 4 188 2019-08-21 06:30:06
952 Gruntilda's Final Battle 698,380 905 - 349 - 59 - 161 - 234 156 2019-08-21 05:35:07
3,756 XP Sounds Attempt 390,670 495 - 211 - 7 - 89 - 70 89 2019-08-21 05:31:45
3,026 Champion Freeverse 571,370 557 - 217 - 7 - 60 - 72 225 2019-08-21 05:29:35
4,150 Champion Freeverse 270,580 233 - 57 - 1 - 22 - 24 134 2019-08-21 05:26:32
31,464 Hanabi 51,780 31 - 30 - 0 - 8 - 2 29 2019-08-21 05:24:59
107 Mindreader 211,060 255 - 94 - 0 - 50 - 27 61 2019-08-21 05:24:21
107 Mindreader 109,615 74 - 62 - 1 - 25 - 22 60 2019-08-21 05:22:42
172 AVALON 74,260 55 - 56 - 2 - 30 - 10 38 2019-08-21 05:21:55
184 AVALON 10,715 3 - 5 - 0 - 1 - 0 8 2019-08-21 05:21:24
8,653 Wild Sky 286,565 337 - 162 - 5 - 45 - 33 71 2019-08-20 00:44:45
1,327 Gangsters Paradise (Candyland's OG Remix) 533,060 609 - 213 - 21 - 86 - 98 167 2019-08-20 00:43:07
948 Gruntilda's Final Battle 722,945 910 - 355 - 42 - 167 - 186 178 2019-08-20 00:39:15
1,339 Gruntilda's Final Battle 79,415 82 - 42 - 15 - 28 - 19 31 2019-08-20 00:35:59
1,413 Gruntilda's Final Battle 12,135 7 - 0 - 3 - 6 - 1 10 2019-08-20 00:35:29
1,119 Gruntilda's Final Battle 363,600 456 - 301 - 83 - 146 - 114 73 2019-08-20 00:35:19
19,542 Etude To A Dragon 304,805 265 - 140 - 35 - 91 - 58 148 2019-08-20 00:31:28
18,670 Etude To A Dragon 524,090 359 - 92 - 16 - 38 - 38 313 2019-08-20 00:29:57
8,676 X-Dreamer Final Cut 488,945 520 - 77 - 4 - 7 - 14 184 2019-08-20 00:28:25
4,624 Infinite Blue 575,690 546 - 71 - 1 - 13 - 8 260 2019-08-20 00:25:30
3,062 Shin Trigger [FC] 906,270 523 - 72 - 4 - 0 - 20 599 2019-08-20 00:21:09
1,443 Garden Party [FC] 494,810 298 - 25 - 1 - 0 - 1 324 2019-08-20 00:17:42
2,295 Wow, I Can Get Sexual Too 877,190 832 - 99 - 1 - 11 - 14 396 2019-08-20 00:15:00
1,323 Do Re Mi Fa Rondo 910,870 772 - 59 - 1 - 9 - 11 473 2019-08-20 00:10:52
4,094 Ieva's Polka (Basshunter Remix) 550,540 602 - 185 - 5 - 29 - 36 178 2019-08-20 00:06:16
1,691 Dreadnought [Standard] 528,380 550 - 110 - 0 - 13 - 17 200 2019-08-19 23:37:17
5,716 I'm Just A DJ 473,590 539 - 119 - 3 - 17 - 24 150 2019-08-19 23:31:38
23,139 I'm Just A DJ 10,555 7 - 2 - 1 - 6 - 2 8 2019-08-19 23:29:47
8,632 Ninja Turtles Theme 231,070 266 - 51 - 1 - 7 - 7 73 2019-08-19 23:28:51
11,269 Electric Obsession 865 6 - 1 - 0 - 15 - 3 2 2019-08-19 23:27:24
8,169 300 This is Sparta EXTENDED Mix 504,130 629 - 86 - 0 - 7 - 15 137 2019-08-19 23:26:41
5,568 Digital Intervention 381,400 286 - 32 - 0 - 2 - 4 216 2019-08-19 23:24:14
37,850 Digital Intervention 94,440 86 - 10 - 0 - 5 - 3 46 2019-08-19 23:22:39
1,625 Maintenance Bot 669,730 543 - 39 - 1 - 2 - 4 361 2019-08-19 23:21:50
4,561 Lesson [FC] 609,705 368 - 30 - 1 - 0 - 0 399 2019-08-19 23:18:25
5,401 Arabesque [FC] 439,600 254 - 36 - 0 - 0 - 0 290 2019-08-19 23:11:01
7,327 Arabesque 243,015 248 - 32 - 3 - 7 - 9 100 2019-08-19 23:09:33
3,486 Song of Storms Dubstep Rap Remix 326,755 404 - 132 - 35 - 45 - 36 81 2019-08-18 18:33:05
5,679 Canon In WHEE 441,995 313 - 31 - 0 - 2 - 3 262 2019-08-18 18:11:43
2,348 Canon In WHEE [FC] 534,610 340 - 6 - 0 - 0 - 2 346 2019-08-18 18:09:34
7,858 Canon In WHEE 348,905 272 - 62 - 11 - 1 - 2 182 2019-08-18 18:07:43
16,147 Honolulu 217,505 171 - 129 - 24 - 16 - 19 92 2019-08-18 18:05:46
978 Gruntilda's Final Battle 606,235 811 - 378 - 105 - 180 - 237 111 2019-08-18 18:03:17
3,223 Champion Freeverse 451,935 536 - 191 - 26 - 88 - 77 132 2019-08-18 18:00:11
1,906 Megalovania 135,680 125 - 50 - 8 - 32 - 17 63 2019-08-18 17:55:51
706 Spear of Justice 496,535 599 - 321 - 44 - 177 - 137 134 2019-08-18 17:55:09
1,272 Gruntilda's Final Battle 308,680 187 - 24 - 2 - 22 - 3 206 2019-08-18 17:52:31
3,513 XP Sounds Attempt 539,620 545 - 192 - 12 - 53 - 58 204 2019-08-18 17:51:00
481 Time To Sleep 211,640 279 - 147 - 17 - 79 - 84 43 2019-08-18 17:48:43
2,450 Princess Lolitits 273,110 305 - 149 - 1 - 63 - 57 85 2019-08-18 17:46:57
7,868 Metropolis Zone 444,665 507 - 104 - 1 - 20 - 32 144 2019-08-18 17:44:39
2,394 tetris [Songs To Wear Pants To] 368,915 288 - 66 - 1 - 5 - 7 194 2019-08-18 17:42:34
30,589 Incognito 197,500 187 - 61 - 1 - 16 - 11 83 2019-08-18 17:34:55
1,380 A Happy Day in Funtown 152,470 93 - 10 - 0 - 11 - 1 102 2019-08-18 16:04:16
3,441 Asteroid Run 574,380 687 - 282 - 6 - 89 - 88 148 2019-08-18 16:01:43
12,218 X 366,520 419 - 135 - 3 - 38 - 22 111 2019-08-18 15:58:50
10,829 Incognito 476,155 538 - 175 - 4 - 37 - 31 144 2019-08-18 15:56:05
6,027 Brooks Wuz Here 155,935 178 - 72 - 3 - 21 - 21 45 2019-08-18 15:53:16
1,252 Song of Storms Dubstep Rap Remix [FC] 943,395 577 - 36 - 3 - 0 - 1 616 2019-08-18 15:48:43
2,861 Forgotten Planet 573,420 481 - 43 - 1 - 3 - 4 298 2019-08-18 15:46:20
1,251 Yellow Lasers 580,660 511 - 25 - 1 - 4 - 4 294 2019-08-18 15:43:23
6,095 Arabesque 300,685 252 - 34 - 3 - 1 - 6 153 2019-08-18 15:38:47
4,556 Reaper [FC] 576,180 352 - 24 - 0 - 0 - 1 376 2019-08-18 15:29:22
1,038 Nothing's Gonna Stop Me v2 99,480 95 - 43 - 7 - 54 - 12 52 2019-08-18 15:26:28
2,643 Nothing's Gonna Stop Me 310,080 358 - 186 - 8 - 57 - 37 80 2019-08-18 15:25:46
5,694 Sword Strike 300,960 351 - 249 - 7 - 59 - 83 59 2019-08-18 15:23:35
2,390 Princess Lolitits 276,755 312 - 142 - 13 - 51 - 40 82 2019-08-18 15:03:19
1,492 Monkey Island 320,245 380 - 157 - 6 - 40 - 43 81 2019-08-18 15:00:47
11,011 Robotix 430,085 497 - 243 - 10 - 72 - 66 113 2019-08-18 14:45:13
872 Metal Crusher 392,565 391 - 127 - 10 - 14 - 31 147 2019-08-18 14:41:49
11,989 Etude To A Dragon 573,095 576 - 139 - 14 - 40 - 65 231 2019-08-18 14:39:28
4,166 Here's to Life 716,270 880 - 237 - 17 - 44 - 60 181 2019-08-18 14:36:24
5,143 Reversing Darts 598,465 731 - 346 - 27 - 128 - 127 142 2019-08-18 14:32:25
10,402 The Games We Played [Part 5] 1,042,160 1,076 - 145 - 7 - 36 - 37 422 2019-08-18 14:29:06
4,130 Champion Freeverse 261,295 250 - 57 - 4 - 34 - 28 119 2019-08-18 14:23:27
4,245 Champion Freeverse 275,280 211 - 20 - 0 - 23 - 7 161 2019-08-17 22:21:59
1,511 Never Enough (xKrmix) 509,770 524 - 130 - 10 - 19 - 42 192 2019-08-17 17:46:26
6,703 On Conquest and Capture 199,400 163 - 67 - 9 - 31 - 28 101 2019-08-17 17:42:39
4,749 Kaleidoscope 469,585 587 - 106 - 7 - 30 - 25 127 2019-08-17 17:41:34
2,343 In The Wind 227,870 266 - 94 - 10 - 45 - 44 70 2019-08-17 17:39:33
860 Azure 454,000 587 - 201 - 13 - 56 - 74 94 2019-08-17 17:38:34
5,377 Wrath 541,835 576 - 144 - 7 - 41 - 62 199 2019-08-17 17:33:44
9,727 Hatten Carnival! 509,665 533 - 88 - 5 - 14 - 31 197 2019-08-17 17:31:14
14,613 Mercury Lamp 572,150 747 - 224 - 16 - 62 - 48 119 2019-08-17 17:29:16
3,175 Grandolin 496,780 534 - 117 - 3 - 22 - 22 178 2019-08-17 17:22:59
1,313 In Aisles 749,435 713 - 151 - 4 - 28 - 39 325 2019-08-17 17:20:35
1,188 I'm Alive (Jarvis Remix) 591,290 621 - 134 - 6 - 12 - 36 217 2019-08-17 17:17:56
6,621 Euthanasia 595,915 658 - 120 - 11 - 25 - 42 209 2019-08-17 17:15:43
616 welc.moe 523,520 674 - 297 - 9 - 61 - 72 91 2019-08-17 17:06:06
639 welc.moe 461,495 613 - 309 - 8 - 111 - 83 75 2019-08-17 16:57:58
4,143 Champion Freeverse 308,040 247 - 39 - 5 - 21 - 15 168 2019-08-17 13:20:08
4,684 Champion Freeverse 87,250 91 - 6 - 0 - 27 - 4 44 2019-08-17 13:18:54
3,869 Champion Freeverse 482,205 378 - 89 - 6 - 42 - 24 263 2019-08-17 13:17:04
4,018 Champion Freeverse 326,785 298 - 73 - 2 - 32 - 19 153 2019-08-17 13:15:16
4,966 Champion Freeverse 40,420 23 - 4 - 0 - 1 - 1 27 2019-08-17 13:11:24
4,498 Champion Freeverse 193,865 126 - 13 - 0 - 3 - 4 122 2019-08-17 13:11:09
2,520 Champion Freeverse 644,515 646 - 166 - 3 - 26 - 27 252 2019-08-17 13:07:45
2,433 Champion Freeverse 618,875 660 - 152 - 5 - 24 - 38 222 2019-08-17 13:04:30
4,984 Champion Freeverse 27,845 18 - 1 - 0 - 1 - 1 18 2019-08-17 13:01:53
2,656 Champion Freeverse 650,455 630 - 168 - 5 - 38 - 37 270 2019-08-17 12:59:47
7,668 Toph's OP 363,895 436 - 246 - 5 - 63 - 65 77 2019-08-17 12:56:33
7,973 Toph's OP 354,000 420 - 248 - 4 - 78 - 62 80 2019-08-17 12:53:51
9,486 Counting Snow 60,845 59 - 11 - 0 - 5 - 4 27 2019-08-16 18:52:17
14,824 Counting Snow 1,355 1 - 3 - 0 - 6 - 8 2 2019-08-16 18:51:40
14,377 Counting Snow 8,600 5 - 5 - 1 - 4 - 17 6 2019-08-16 18:50:19
14,329 Counting Snow 5,665 7 - 4 - 1 - 10 - 12 4 2019-08-16 18:49:54
5,102 Undici 147,765 219 - 181 - 38 - 175 - 65 31 2019-08-16 18:49:06
2,765 Champion Freeverse 511,855 611 - 183 - 2 - 45 - 34 140 2019-08-16 18:47:57
4,032 Champion Freeverse 443,535 280 - 93 - 2 - 19 - 13 270 2019-08-15 23:45:05
1,574 Down With the Sickness 844,850 883 - 62 - 4 - 9 - 14 345 2019-08-13 22:21:56
1,509 Gonna R*pe Kylie 668,875 568 - 130 - 1 - 13 - 15 325 2019-08-13 22:15:14
10,835 Hanabi 489,275 650 - 257 - 6 - 63 - 35 81 2019-08-13 22:07:01
31,765 X-Dreamer Final Cut 372,700 297 - 33 - 1 - 18 - 10 206 2019-08-13 22:04:16
6,421 Frozen Fire 438,760 538 - 115 - 13 - 26 - 21 119 2019-08-13 22:02:14
2,575 CS Custom Gun Sounds 440,100 489 - 145 - 3 - 39 - 40 144 2019-08-13 21:59:52
9,627 Infernoplex 746,235 1,033 - 281 - 20 - 121 - 89 139 2019-08-13 21:54:59
2,510 Champion Freeverse 552,520 657 - 149 - 5 - 30 - 39 160 2019-08-13 21:49:54
30,805 AAA 110,530 100 - 125 - 1 - 46 - 32 36 2019-08-13 21:46:27
783 Time To Sleep 40,950 28 - 16 - 0 - 9 - 3 24 2019-08-13 21:45:29
5,091 Progression 506,530 584 - 267 - 7 - 78 - 65 137 2019-08-13 21:44:21
2,312 {Evolution} Out Stage 306,140 390 - 319 - 23 - 139 - 113 48 2019-08-13 21:40:31
3,327 {Evolution} Out Stage 24,545 12 - 8 - 1 - 1 - 0 16 2019-08-13 21:38:54
2,423 WHO GIVES A F*** 292,885 379 - 174 - 13 - 49 - 47 52 2019-08-13 21:35:51
4,777 WHO GIVES A F*** 31,755 21 - 3 - 0 - 2 - 0 20 2019-08-13 21:34:34
10,978 X-Tinction 93,815 78 - 45 - 4 - 26 - 31 47 2019-08-13 21:34:06
7,042 Ska Cha Cha 111,640 112 - 38 - 2 - 10 - 21 43 2019-08-13 21:33:17
2,852 reveal yourself 135,180 134 - 44 - 2 - 11 - 16 53 2019-08-13 21:30:28
5,571 Counter Strike Gun Sounds 90,235 49 - 38 - 1 - 16 - 13 58 2019-08-13 21:29:29
19,631 Balloon Fever 117,590 127 - 43 - 1 - 22 - 16 43 2019-08-13 21:25:59
26,991 Kirby's Dream Land 353,590 285 - 54 - 2 - 12 - 20 186 2019-08-13 21:24:18
1,989 Comfortably Lost 423,730 575 - 213 - 13 - 83 - 54 75 2019-08-13 21:21:54
3,929 Vanishing Gungaroon 563,565 621 - 133 - 6 - 17 - 31 191 2019-08-13 21:16:30
6,335 Yoshi's Cookie 203,175 148 - 78 - 5 - 15 - 15 105 2019-08-13 21:13:22
12,203 GO! 511,665 615 - 410 - 7 - 132 - 90 103 2019-08-13 21:11:41
3,486 I'm a Monster 97,825 59 - 5 - 0 - 0 - 0 64 2019-08-13 21:01:55
37,886 Go Go Go Power Rangers 194,100 164 - 43 - 3 - 35 - 12 103 2019-08-13 20:57:22
11,193 Jurs OP 389,615 385 - 113 - 4 - 39 - 17 159 2019-08-13 20:54:23
5,817 Overdrive! [RushJet1] 532,415 664 - 160 - 3 - 33 - 36 134 2019-08-13 20:42:44
4,641 dr0p 567,000 624 - 188 - 8 - 34 - 40 183 2019-08-13 20:38:59
11,388 Hyper Hyper -Definitive Version- 526,540 549 - 178 - 4 - 38 - 40 188 2019-08-13 20:35:51
1,981 tetris [Songs To Wear Pants To] 327,560 315 - 40 - 0 - 5 - 7 145 2019-08-13 20:20:10
1,846 Dragon Slayer 528,375 590 - 123 - 4 - 21 - 33 177 2019-08-13 20:13:08
4,364 Dragon's Final Roar 564,785 550 - 71 - 2 - 7 - 9 245 2019-08-13 20:09:14
7,433 iPatch's OP 412,470 388 - 91 - 3 - 18 - 27 180 2019-08-13 20:07:04
1,413 Gangsters Paradise (Candyland's OG Remix) 556,160 551 - 235 - 15 - 128 - 83 229 2019-08-13 20:00:48
6,416 Nitrx 126,750 89 - 142 - 2 - 38 - 29 51 2019-08-13 19:57:52
984 Gruntilda's Final Battle 617,670 816 - 372 - 50 - 236 - 201 141 2019-08-13 06:32:07
1,847 Gruntilda's Lair 447,230 425 - 36 - 0 - 4 - 9 205 2019-08-13 06:23:32
5,777 Play It Funky 488,775 440 - 52 - 3 - 5 - 7 234 2019-08-13 06:16:44
867 bluebird [FC] 719,840 448 - 20 - 0 - 0 - 3 468 2019-08-13 06:14:07
3,592 bluebird 92,650 59 - 2 - 0 - 1 - 2 60 2019-08-13 06:11:48
3,162 bluebird 342,360 214 - 12 - 0 - 2 - 1 222 2019-08-13 06:11:15
3,871 A 453,450 391 - 21 - 1 - 1 - 6 233 2019-08-13 06:09:05
13,846 Ninja Turtles Theme 248,440 231 - 66 - 4 - 24 - 27 111 2019-08-13 06:06:46
4,870 Honolulu 275,125 292 - 39 - 2 - 7 - 7 106 2019-08-13 06:05:24
1,181 CAPTAIN JACK (GRANDALE REMIX) 311,605 413 - 203 - 0 - 57 - 35 47 2019-08-13 06:03:38
15,175 X-Dreamer Final Cut 435,595 455 - 129 - 2 - 22 - 21 157 2019-08-13 05:59:57
2,464 Nintendon't 181,935 184 - 89 - 4 - 24 - 26 64 2019-08-10 22:51:36
11,046 Tension 391,105 480 - 310 - 27 - 163 - 105 93 2019-08-10 22:42:48
6,350 ShapeShifter 286,790 284 - 157 - 3 - 77 - 44 112 2019-08-10 22:39:59
3,189 Electronic Music Is A Joke 314,055 351 - 193 - 8 - 47 - 47 83 2019-08-10 22:37:53
3,641 Csikos Post 113,930 87 - 47 - 1 - 18 - 16 59 2019-08-10 22:35:42
2,728 Windy Valley (Genesis'd) 142,435 121 - 61 - 2 - 12 - 14 63 2019-08-10 22:33:37
4,818 MASCARADA 443,245 498 - 137 - 4 - 51 - 37 148 2019-08-10 22:12:04
4,561 XP Sounds Attempt 292,140 197 - 45 - 1 - 14 - 15 176 2019-08-10 19:43:47
5,435 XP Sounds Attempt 17,770 13 - 2 - 0 - 3 - 0 11 2019-08-10 19:42:18
4,564 XP Sounds Attempt 222,395 195 - 46 - 1 - 14 - 11 107 2019-08-10 19:39:44
2,103 Koisuru VOC@LOID 856,635 1,025 - 209 - 8 - 41 - 66 249 2019-08-10 19:18:23
2,530 Champion Freeverse 642,800 658 - 144 - 6 - 33 - 40 252 2019-08-10 19:09:43
4,847 Champion Freeverse 96,605 60 - 2 - 1 - 0 - 0 63 2019-08-10 19:06:29
12,193 Infernoplex 426,800 467 - 159 - 7 - 50 - 33 142 2019-08-10 19:03:38
5,117 Reversing Darts 668,690 722 - 367 - 11 - 120 - 87 209 2019-08-10 18:58:40
984 welc.moe 17,755 9 - 3 - 0 - 0 - 1 12 2019-08-10 18:55:47
4,830 Techno Green Greens 331,000 383 - 146 - 4 - 30 - 36 90 2019-08-10 18:53:05
1,450 Silent Wind 468,505 508 - 135 - 2 - 15 - 24 157 2019-08-10 18:50:20
2,444 Silent Wind 277,505 199 - 35 - 2 - 8 - 10 161 2019-08-10 18:47:54
12,117 Secrets and Lies 289,855 190 - 44 - 3 - 15 - 13 178 2019-08-10 18:44:17
850 welc.moe 200,430 187 - 127 - 3 - 39 - 21 75 2019-08-10 18:41:33
3,888 Champion Freeverse 349,680 360 - 96 - 4 - 30 - 32 135 2019-08-06 20:41:34
4,469 Champion Freeverse 212,060 138 - 10 - 0 - 5 - 2 135 2019-08-06 20:38:49
4,463 Champion Freeverse 216,570 143 - 8 - 0 - 4 - 2 137 2019-08-06 20:36:48
2,177 Maintenance Bot 411,440 511 - 59 - 3 - 12 - 14 118 2019-08-06 00:22:57
7,680 A 388,635 367 - 38 - 1 - 8 - 12 179 2019-08-06 00:17:22
5,246 Lesson 558,905 363 - 35 - 0 - 1 - 3 350 2019-08-06 00:14:07
2,997 Intense Colors (FFR Edit) 447,810 311 - 44 - 0 - 4 - 5 266 2019-08-06 00:11:16
10,598 NES-Style Eye of the Tiger [FC] 233,375 130 - 25 - 0 - 0 - 0 155 2019-08-06 00:07:38
21,170 NES-Style Eye of the Tiger 126,835 100 - 44 - 1 - 10 - 11 63 2019-08-06 00:06:14
26,151 NES-Style Eye of the Tiger 68,730 83 - 48 - 0 - 24 - 34 18 2019-08-06 00:04:53
32,618 NES-Style Eye of the Tiger 4,115 5 - 5 - 0 - 9 - 11 3 2019-08-06 00:00:15
18,903 Crazy Hair Day 2,105 3 - 3 - 0 - 7 - 10 2 2019-08-05 23:58:25
18,961 Crazy Hair Day 3,885 2 - 3 - 0 - 6 - 9 4 2019-08-05 23:58:06
3,458 Crazy Hair Day 886,940 803 - 93 - 5 - 4 - 16 421 2019-08-05 23:18:16
9,681 Gameboy Rave! 405,150 349 - 61 - 1 - 11 - 11 200 2019-08-05 23:13:45
5,361 Leeroy Jenkins (Fun Time Mix) 371,885 461 - 73 - 0 - 14 - 20 103 2019-08-05 23:10:36
3,465 Theme of the Dragoon Knights [FC] 289,100 175 - 14 - 0 - 0 - 0 189 2019-08-05 22:56:34
953 Gruntilda's Final Battle 660,940 873 - 359 - 41 - 201 - 144 145 2019-08-05 22:20:04
21,141 Etude To A Dragon 328,160 236 - 79 - 3 - 27 - 8 185 2019-08-05 22:15:44
6,438 Hybrid 446,725 599 - 237 - 2 - 69 - 31 74 2019-08-05 22:04:40
6,032 Brooks Wuz Here 160,820 178 - 71 - 1 - 24 - 11 51 2019-08-05 22:00:08
1,006 My Catchy Lil Bassline 221,875 196 - 44 - 1 - 6 - 11 104 2019-08-05 21:57:27
941 Metal Crusher 281,765 339 - 165 - 4 - 34 - 37 61 2019-08-05 21:41:43
4,135 Champion Freeverse 377,355 252 - 30 - 1 - 11 - 7 234 2019-08-05 21:17:44
2,829 Champion Freeverse 517,170 582 - 217 - 3 - 39 - 34 150 2019-08-05 21:15:27
2,879 Champion Freeverse 499,570 588 - 193 - 7 - 53 - 43 140 2019-08-05 21:07:17
15,054 Playdoh 189,610 190 - 64 - 0 - 17 - 11 73 2019-08-05 21:01:16
3,566 XP Sounds Attempt 479,470 543 - 181 - 9 - 69 - 53 153 2019-08-05 18:34:06
9,497 Infernoplex 752,195 1,040 - 281 - 16 - 118 - 69 140 2019-08-05 18:28:36
3,067 Champion Freeverse 475,340 545 - 225 - 5 - 66 - 55 135 2019-08-05 18:15:20
4,038 Champion Freeverse 401,635 282 - 74 - 1 - 15 - 11 231 2019-08-05 18:07:46
1,103 Splinter 148,930 168 - 162 - 12 - 84 - 82 39 2019-08-03 23:02:23
1,276 Gruntilda's Final Battle 210,445 154 - 80 - 15 - 58 - 55 122 2019-08-03 22:57:11
9,982 Over the Rave 212,895 270 - 214 - 11 - 122 - 112 45 2019-08-03 22:53:17
3,038 Animus Intorqueo No. 3 105,015 63 - 48 - 7 - 34 - 34 68 2019-08-03 22:49:28
3,062 Animus Intorqueo No. 3 44,260 50 - 47 - 5 - 32 - 26 14 2019-08-03 22:48:30
2,952 Champion Freeverse 584,785 554 - 235 - 4 - 48 - 44 231 2019-08-03 22:44:09
9,895 00.01 266,780 303 - 297 - 13 - 96 - 75 49 2019-08-03 22:38:13
2,412 Girl Directions 369,330 363 - 191 - 7 - 59 - 47 136 2019-08-03 22:35:38
4,205 XP Sounds Attempt 349,950 327 - 306 - 12 - 157 - 102 136 2019-08-03 22:33:06
23,470 F 102,440 63 - 99 - 1 - 41 - 39 54 2019-08-03 22:29:54
2,975 Champion Freeverse 611,370 579 - 186 - 6 - 70 - 43 264 2019-08-03 18:52:53
3,375 Champion Freeverse 433,410 470 - 260 - 12 - 99 - 78 135 2019-08-03 18:34:52
12,501 Infernoplex 296,930 346 - 191 - 9 - 89 - 40 82 2019-08-03 18:30:35
4,667 XP Sounds Attempt 181,315 140 - 87 - 2 - 42 - 35 94 2019-08-03 18:27:35
931 Gruntilda's Final Battle 636,655 956 - 302 - 37 - 179 - 137 84 2019-07-31 14:56:40
3,606 XP Sounds Attempt 442,710 552 - 154 - 4 - 92 - 47 126 2019-07-31 14:52:45
13,004 X-Dreamer Final Cut 447,935 482 - 101 - 6 - 19 - 19 161 2019-07-31 14:43:47
3,931 XP Sounds Attempt 350,900 433 - 247 - 9 - 113 - 82 81 2019-07-31 00:09:02
19,675 Excite Bike [Light] [FC] 48,500 28 - 4 - 0 - 0 - 0 32 2019-07-31 00:06:39
41,404 Excite Bike [Light] 33,265 22 - 9 - 0 - 1 - 0 19 2019-07-31 00:06:05
54,796 Excite Bike [Light] 31,895 21 - 6 - 1 - 4 - 6 20 2019-07-31 00:05:55
9,561 Theme of the Dragoon Knights 137,215 145 - 33 - 0 - 11 - 10 52 2019-07-31 00:04:50
6,592 Tron From Hell 584,920 382 - 78 - 14 - 44 - 38 367 2019-07-31 00:03:48
9,243 Tron From Hell 229,650 144 - 64 - 6 - 4 - 12 134 2019-07-30 23:47:59
8,267 Tron From Hell 357,780 304 - 78 - 4 - 9 - 15 172 2019-07-30 23:46:11
10,355 Tron From Hell 12,255 14 - 13 - 2 - 15 - 24 6 2019-07-30 23:42:56
2,016 Metal Crusher 5,835 11 - 0 - 3 - 10 - 14 3 2019-07-30 23:41:50
1,059 Metal Crusher 216,325 289 - 162 - 11 - 80 - 49 38 2019-07-30 23:41:15
1,354 Metal Crusher 133,880 150 - 85 - 7 - 32 - 23 38 2019-07-30 23:40:01
1,170 Splinter 130,100 109 - 41 - 1 - 16 - 11 64 2019-07-30 23:37:06
4,109 XP Sounds Attempt 294,525 364 - 292 - 17 - 129 - 96 55 2019-07-30 23:35:57
9,741 Infernoplex 800,975 1,051 - 240 - 13 - 151 - 99 205 2019-07-30 23:32:06
13,802 Infernoplex 135,955 111 - 49 - 0 - 27 - 10 70 2019-07-30 23:27:52
9,327 Infernoplex 840,280 1,067 - 253 - 17 - 118 - 75 221 2019-07-30 23:19:59
3,897 XP Sounds Attempt 315,520 450 - 224 - 12 - 116 - 64 43 2019-07-30 23:13:54
11,766 X-Dreamer Final Cut 621,760 491 - 97 - 7 - 13 - 16 329 2019-07-30 22:50:41
9,031 Vi Sitter I Ventrilo Och Spelar DotA 887,145 817 - 115 - 6 - 6 - 15 408 2019-07-30 22:46:03
5,952 From Mount Chorus 955,655 919 - 119 - 2 - 11 - 11 421 2019-07-30 22:40:43
4,350 Battle Squadron Menu (Juno Reaktor Mix) 353,135 338 - 77 - 0 - 6 - 4 148 2019-07-30 22:35:58
3,679 XP Sounds Attempt 412,080 504 - 213 - 7 - 78 - 45 101 2019-07-30 14:41:48
1,080 Powerflux 57,280 142 - 146 - 24 - 235 - 72 12 2019-07-30 14:31:53
603 The Scales of Strangeness 91,245 149 - 115 - 20 - 111 - 101 13 2019-07-30 14:29:04
7,461 Brooks Wuz Here 154,835 153 - 80 - 3 - 38 - 35 61 2019-07-30 14:25:28
1,465 Tron From Hell [FC] 797,730 500 - 17 - 1 - 0 - 0 518 2019-07-30 14:24:10
13,451 X-Dreamer Final Cut 470,295 477 - 107 - 4 - 20 - 25 185 2019-07-30 14:20:43
10,339 Infernoplex 698,075 952 - 326 - 27 - 150 - 108 132 2019-07-30 14:17:08
1,112 Gruntilda's Final Battle 447,835 486 - 212 - 21 - 94 - 89 152 2019-07-30 13:52:18
901 Splinter 495,935 675 - 362 - 27 - 165 - 110 77 2019-07-30 13:32:33
1,128 Spider Dance 361,865 477 - 321 - 8 - 146 - 97 58 2019-07-30 13:28:59
8,017 Secrets and Lies 539,935 571 - 184 - 7 - 48 - 61 191 2019-07-30 13:23:10
3,485 Blue Marine 382,205 497 - 207 - 10 - 66 - 58 73 2019-07-30 13:18:31
12,245 Etude To A Dragon 593,310 573 - 135 - 13 - 48 - 40 256 2019-07-30 13:13:43
641 welc.moe 421,165 560 - 340 - 11 - 130 - 82 61 2019-07-30 13:08:00
7,779 Toph's OP 336,550 451 - 211 - 3 - 85 - 67 58 2019-07-30 13:04:24
4,110 Champion Freeverse 283,540 241 - 99 - 5 - 51 - 35 140 2019-07-30 13:00:59
3,050 Fast Rap Battle 279,415 313 - 258 - 7 - 99 - 69 68 2019-07-29 16:42:11
3,276 Champion Freeverse 542,410 500 - 241 - 7 - 93 - 71 231 2019-07-29 16:39:21
4,935 Honolulu 310,160 287 - 47 - 1 - 5 - 6 141 2019-07-29 16:35:29
5,273 Undici 111,720 217 - 181 - 23 - 259 - 69 23 2019-07-29 16:29:56
17,895 600 AD in Piano 658,185 698 - 163 - 4 - 70 - 53 252 2019-07-29 16:27:44
2,847 Fear Me (NGADm Entry) 344,690 396 - 292 - 20 - 139 - 121 91 2019-07-29 16:22:46
13,386 Infernoplex 171,990 185 - 101 - 7 - 70 - 61 65 2019-07-29 16:19:46
1,082 Gruntilda's Final Battle 479,210 557 - 315 - 35 - 197 - 231 150 2019-07-29 16:16:45
2,070 Gruntilda's Lair 440,315 417 - 41 - 0 - 7 - 7 202 2019-07-29 16:11:29
2,398 Gruntilda's Lair 392,305 405 - 49 - 2 - 9 - 12 159 2019-07-29 16:09:17
4,404 Gruntilda's Lair 543,315 274 - 168 - 21 - 2 - 6 346 2019-07-29 16:07:34
54,426 Gameboy Rave! 2,360 3 - 2 - 2 - 9 - 8 3 2019-07-29 16:04:26
54,328 Gameboy Rave! 8,540 1 - 11 - 5 - 13 - 14 9 2019-07-29 16:02:54
54,062 Gameboy Rave! 13,805 4 - 10 - 3 - 13 - 14 13 2019-07-29 16:01:24
1,363 My Catchy Lil Bassline 15,735 13 - 20 - 1 - 21 - 23 10 2019-07-29 15:58:25
12,029 Toph's OP 92,790 67 - 169 - 5 - 87 - 92 38 2019-07-29 15:56:17
883 Splinter 537,905 740 - 334 - 33 - 122 - 147 78 2019-07-29 15:45:50
1,048 Spear of Justice 222,290 243 - 124 - 18 - 77 - 79 79 2019-07-29 15:39:37
1,633 Fill Me Up With Snacky Happiness 470,600 612 - 180 - 18 - 37 - 51 96 2019-07-29 15:37:34
9,983 Infernoplex 726,935 1,004 - 287 - 34 - 130 - 138 137 2019-07-29 15:32:05
14,329 Infernoplex 109,355 77 - 14 - 1 - 18 - 16 69 2019-07-29 15:27:00
8,662 Infernoplex 890,805 1,122 - 222 - 29 - 82 - 76 238 2019-07-29 15:16:07
9,058 Infernoplex 803,875 1,086 - 245 - 28 - 96 - 79 169 2019-07-29 15:09:09
9,536 Infernoplex 854,690 1,010 - 322 - 34 - 89 - 82 238 2019-07-29 15:03:49
12,042 Infernoplex 457,235 502 - 189 - 16 - 84 - 84 156 2019-07-29 14:57:49
2,127 Megalovania 107,890 78 - 45 - 7 - 21 - 13 59 2019-07-28 20:12:07
897 Metal Crusher 352,245 369 - 132 - 21 - 20 - 48 119 2019-07-28 20:11:37
846 Black 492,070 684 - 457 - 59 - 307 - 244 87 2019-07-28 20:10:03
686 Spear of Justice 398,715 604 - 308 - 49 - 180 - 154 38 2019-07-28 20:07:03
1,788 Keep It Short 427,355 558 - 176 - 23 - 51 - 70 88 2019-07-28 19:52:23
14,881 600 AD in Piano 567,160 722 - 197 - 33 - 41 - 61 128 2019-07-28 19:38:39
7,259 Playdoh 572,965 711 - 213 - 16 - 46 - 64 138 2019-07-28 19:29:49
3,599 Pulling Through 471,005 544 - 140 - 17 - 39 - 77 146 2019-07-28 19:23:48
10,668 The Games We Played [Part 4] 610,420 791 - 220 - 36 - 77 - 162 140 2019-07-28 19:12:58
13,610 Etude To A Dragon 597,115 521 - 188 - 21 - 39 - 60 271 2019-07-28 19:06:43
7,936 Secrets and Lies 530,560 584 - 162 - 22 - 42 - 69 178 2019-07-28 19:00:03
608 welc.moe 498,595 660 - 263 - 26 - 92 - 132 93 2019-07-28 18:51:53
10,112 Infernoplex 728,575 945 - 363 - 42 - 105 - 88 141 2019-07-28 18:44:06
7,917 Toph's OP 342,700 445 - 208 - 12 - 85 - 78 68 2019-07-28 18:39:57
5,821 Ieva's Polka (Basshunter Remix) 372,340 500 - 225 - 21 - 75 - 72 59 2019-07-24 23:30:40
3,255 Gruntilda's Lair 378,040 356 - 98 - 0 - 11 - 15 159 2019-07-24 23:18:26
3,592 Honolulu [FC] 516,565 303 - 36 - 1 - 0 - 2 340 2019-07-24 22:29:16
4,301 Honolulu 321,165 301 - 31 - 2 - 6 - 8 149 2019-07-24 22:26:17
4,833 Honolulu 322,705 290 - 43 - 2 - 5 - 9 153 2019-07-24 22:19:23
12,216 Honolulu 268,680 204 - 105 - 23 - 8 - 9 129 2019-07-24 22:16:11
4,908 Starwolf 108,810 121 - 52 - 6 - 31 - 38 38 2019-07-24 22:13:08
987 Gruntilda's Final Battle 568,685 762 - 419 - 70 - 223 - 268 105 2019-07-24 22:09:31
9,789 Wish (For FFR) 390,765 572 - 317 - 50 - 188 - 174 48 2019-07-24 22:05:18
1,039 Spear of Justice 228,795 244 - 118 - 25 - 73 - 80 85 2019-07-24 22:02:00
9,106 Be Princess 321,855 463 - 261 - 36 - 127 - 159 36 2019-07-24 21:59:34
14,917 Etude To A Dragon 518,410 522 - 152 - 20 - 75 - 67 213 2019-07-24 21:56:08
9,875 Abtrusity 454,275 553 - 118 - 17 - 30 - 48 127 2019-07-24 21:51:52
10,429 Infernoplex 701,265 923 - 353 - 50 - 129 - 111 136 2019-07-24 21:47:19
14,892 Infernoplex 56,240 53 - 31 - 17 - 47 - 40 33 2019-07-24 21:42:20
15,360 {Blaze} 614,710 805 - 348 - 42 - 177 - 209 133 2019-07-24 21:40:01
2,834 Fast Rap Battle 362,825 399 - 193 - 38 - 47 - 61 104 2019-07-24 21:35:10
8,408 Playdoh 669,945 642 - 268 - 25 - 51 - 121 260 2019-07-24 21:29:29
8,191 Toph's OP 341,895 422 - 226 - 21 - 81 - 120 74 2019-07-24 21:25:17
752 We Are The Vampires 364,275 530 - 307 - 52 - 187 - 277 49 2019-07-24 00:48:53
982 Gruntilda's Final Battle 558,790 808 - 360 - 78 - 228 - 311 88 2019-07-24 00:43:57
859 Spear of Justice 262,270 376 - 202 - 32 - 166 - 119 52 2019-07-24 00:39:40
270 Stress 496,815 640 - 254 - 53 - 81 - 92 99 2019-07-24 00:37:13
2,607 Fear Me (NGADm Entry) 486,640 578 - 189 - 25 - 55 - 78 134 2019-07-24 00:33:00
7,490 Dot Matrix Hero 419,150 616 - 226 - 32 - 126 - 125 58 2019-07-24 00:29:56
56,774 The Games We Played [Part 2] 171,630 252 - 112 - 8 - 85 - 93 30 2019-07-24 00:26:53
13,127 Secrets and Lies 118,240 133 - 67 - 7 - 54 - 49 44 2019-07-24 00:24:57
16,093 Etude To A Dragon 470,720 481 - 182 - 20 - 86 - 66 183 2019-07-24 00:23:50
10,900 Gameboy Rave! 395,520 336 - 73 - 3 - 10 - 21 194 2019-07-24 00:21:30
13,340 Gameboy Rave! 285,860 327 - 67 - 5 - 23 - 28 95 2019-07-24 00:19:47
2,940 Alive (Pegboard Nerds Remix) [Standard] 1,228,745 730 - 116 - 3 - 2 - 10 796 2019-07-24 00:13:52
14,542 Ninja Turtles Theme 192,970 214 - 89 - 3 - 19 - 24 57 2019-07-24 00:09:33
2,595 Electric Obsession 526,475 504 - 85 - 2 - 9 - 21 229 2019-07-24 00:04:40
3,946 Tron From Hell 517,740 436 - 72 - 4 - 6 - 11 260 2019-07-23 23:51:58
2,573 Gruntilda's Lair 341,525 393 - 63 - 0 - 9 - 8 111 2019-07-23 23:47:21
29,240 Honolulu 103,655 51 - 22 - 3 - 5 - 3 71 2019-07-23 23:45:19
1,259 s.s.s.s. 273,000 275 - 160 - 42 - 28 - 44 85 2019-07-23 23:42:12
4,455 Gym Leader (RBY) 408,880 599 - 269 - 45 - 130 - 136 46 2019-07-23 23:39:35
10,285 Turkish March 347,625 468 - 341 - 92 - 155 - 328 46 2019-07-23 23:32:58
1,119 Spider Dance 362,445 541 - 221 - 28 - 162 - 160 56 2019-07-23 23:21:31
5,115 Reversing Darts 571,880 752 - 318 - 34 - 128 - 168 112 2019-07-23 23:15:40
7,104 Toph's OP 408,070 493 - 190 - 16 - 51 - 70 101 2019-07-23 23:09:37
15,757 The Games We Played [Part 2] 459,750 522 - 130 - 22 - 19 - 21 142 2019-07-23 23:05:52
10,275 Infernoplex 654,170 956 - 324 - 44 - 131 - 127 80 2019-07-23 23:00:15
4,734 Nebula [RushJet1] 375,940 499 - 261 - 33 - 100 - 105 61 2019-07-22 16:01:35
4,618 Nebula [RushJet1] 427,200 528 - 236 - 34 - 95 - 76 101 2019-07-22 15:59:24
5,434 Reversing Darts 542,775 694 - 300 - 51 - 187 - 163 137 2019-07-22 15:56:22
7,771 Toph's OP 343,470 463 - 190 - 12 - 85 - 87 64 2019-07-22 15:53:19
8,695 Toph's OP 302,135 394 - 235 - 20 - 101 - 149 54 2019-07-21 20:27:43
23,075 Harry Potter Techno Remix 344,640 319 - 203 - 15 - 70 - 88 136 2019-07-21 20:11:48
10,332 Metropolis Zone 373,650 436 - 143 - 11 - 42 - 103 109 2019-07-21 20:09:19
2,873 Fast Rap Battle 305,560 400 - 189 - 25 - 63 - 113 54 2019-07-21 20:06:53
11,669 F 363,140 472 - 150 - 18 - 46 - 72 77 2019-07-21 20:03:54
1,671 Pembroke Welsh Corgi 388,250 420 - 52 - 4 - 9 - 24 146 2019-07-21 20:00:35
38,716 300 This is Sparta EXTENDED Mix 174,515 107 - 11 - 0 - 10 - 13 116 2019-07-21 19:57:21
14,272 Blank Knowing 351,115 322 - 56 - 1 - 10 - 17 162 2019-07-21 19:55:17
8,339 Canon In WHEE [FC] 506,910 244 - 96 - 6 - 0 - 1 346 2019-07-21 19:44:30
5,800 Undici 93,040 162 - 142 - 14 - 152 - 38 12 2019-07-21 19:31:12
21,007 Arrrrrr 10,575 7 - 1 - 0 - 5 - 0 8 2019-07-21 19:26:35
9,324 Arrrrrr 294,585 192 - 61 - 10 - 4 - 5 173 2019-07-21 19:24:39
8,315 Toph's OP 323,090 404 - 244 - 18 - 84 - 108 61 2019-07-21 19:13:37
10,361 The Decisive Battle 295,320 368 - 122 - 16 - 49 - 66 75 2019-07-21 18:44:42
1,188 Day's End 544,900 655 - 152 - 4 - 37 - 45 155 2019-07-21 18:41:45
36,291 600 AD in Piano 148,275 93 - 57 - 8 - 3 - 3 82 2019-07-21 18:37:42
1,072 Cowbell Rock 332,230 450 - 193 - 27 - 97 - 88 62 2019-07-21 18:35:27
2,174 Bouff 405,020 561 - 238 - 46 - 89 - 146 59 2019-07-21 18:33:09
951 All is fair in Rage 486,930 566 - 212 - 16 - 87 - 79 145 2019-07-21 18:30:29
14,212 600 AD in Piano 616,830 720 - 219 - 17 - 37 - 43 172 2019-07-21 18:10:54
6,847 *twinklesky* 497,395 604 - 206 - 21 - 65 - 73 129 2019-07-21 17:59:44
10,217 {Arabian Assassin} 273,115 347 - 200 - 21 - 91 - 134 57 2019-07-21 17:53:38
1,773 Tokimori Uta 532,455 500 - 165 - 10 - 53 - 52 229 2019-07-21 17:29:08
510 The Impresario 1,355,350 1,775 - 797 - 129 - 103 - 162 188 2019-07-21 17:10:39
625 welc.moe 457,080 600 - 287 - 35 - 119 - 144 86 2019-07-21 15:59:25
9,174 Secrets and Lies 436,230 498 - 224 - 22 - 66 - 101 122 2019-07-21 15:23:57
3,610 Blue Marine 390,615 466 - 225 - 26 - 63 - 73 92 2019-07-21 12:12:54
3,614 Off World Colony 286,700 323 - 326 - 8 - 116 - 104 57 2019-07-21 12:03:25
22,343 Etude To A Dragon 223,450 213 - 77 - 15 - 22 - 44 92 2019-07-20 06:44:19
12,693 Techno Green Greens 47,290 36 - 34 - 14 - 17 - 18 23 2019-07-20 06:43:26
5,783 Techno Green Greens 292,250 346 - 148 - 12 - 57 - 87 80 2019-07-20 06:43:04
15,109 Etude To A Dragon 562,945 507 - 168 - 35 - 59 - 87 256 2019-07-20 06:41:42
627 welc.moe 462,820 614 - 259 - 35 - 133 - 140 96 2019-07-20 06:38:33
971 welc.moe 1,875 3 - 1 - 0 - 13 - 1 4 2019-07-20 06:36:18
9,444 Secrets and Lies 398,265 491 - 218 - 31 - 70 - 137 91 2019-07-20 06:19:51
5,578 Pulling Through 254,690 307 - 102 - 6 - 44 - 45 72 2019-07-20 06:06:54
14,014 Etude To A Dragon 548,155 523 - 179 - 22 - 45 - 99 226 2019-07-19 11:05:16
3,624 Blue Marine 427,910 475 - 205 - 33 - 67 - 88 131 2019-07-19 10:58:05
644 welc.moe 355,690 540 - 265 - 51 - 185 - 182 44 2019-07-19 04:27:47
7,024 Techno Green Greens 228,605 302 - 130 - 25 - 106 - 88 60 2019-07-19 04:24:46
1,859 Silent Wind 322,045 417 - 168 - 5 - 70 - 54 69 2019-07-19 04:23:23
10,242 Secrets and Lies 390,565 431 - 254 - 19 - 106 - 126 118 2019-07-19 03:39:41
3,754 Pulling Through 411,700 515 - 174 - 10 - 41 - 62 94 2019-07-19 03:20:20
2,964 Off World Colony 432,520 533 - 173 - 17 - 50 - 82 108 2019-07-19 03:17:14
5,075 MASCARADA 401,215 465 - 161 - 26 - 38 - 73 113 2019-07-19 03:12:02
727 Leadfoot Getaway 515,895 743 - 257 - 38 - 124 - 254 78 2019-07-19 03:08:25
1,896 Keep It Short 443,630 539 - 181 - 21 - 67 - 99 119 2019-07-19 02:59:42
4,708 Here's to Life 566,630 799 - 255 - 43 - 81 - 110 82 2019-07-19 02:55:20
8,915 Haven 486,870 594 - 230 - 18 - 85 - 86 124 2019-07-19 02:50:43
14,151 Fantranstic 429,395 592 - 213 - 14 - 85 - 110 73 2019-07-19 02:43:01
23,856 Etude To A Dragon 219,605 180 - 80 - 11 - 24 - 28 106 2019-07-19 02:39:30
1,265 Fall Memories 388,675 492 - 225 - 26 - 85 - 94 83 2019-07-19 02:35:19
8,006 Faces 633,570 942 - 349 - 37 - 146 - 164 66 2019-07-19 02:30:43
15,440 Etude To A Dragon 424,690 493 - 191 - 21 - 64 - 115 122 2019-07-19 02:18:06
13,155 esc (super version) 468,665 638 - 207 - 32 - 68 - 92 82 2019-07-19 02:13:28
3,141 CS Custom Gun Sounds 319,190 398 - 176 - 22 - 80 - 126 78 2019-07-19 02:10:09
3,951 Blue Marine 328,735 410 - 252 - 27 - 91 - 167 64 2019-07-19 02:02:35
3,980 Blue Marine 376,660 425 - 214 - 46 - 95 - 201 115 2019-07-19 01:46:33
12,970 Infernoplex 198,215 225 - 102 - 29 - 36 - 101 58 2019-07-16 01:41:05
13,280 Infernoplex 218,055 198 - 82 - 17 - 35 - 74 98 2019-07-16 01:39:25
1 2 3 4